<?xml version="1.0" encoding="UTF-8" standalone="no" ?>
<gpx xmlns="http://www.topografix.com/GPX/1/1" xmlns:xsi="http://www.w3.org/2001/XMLSchema-instance" xsi:schemaLocation="http://www.topografix.com/GPX/1/1 http://www.topografix.com/GPX/1/1/gpx.xsd" version="1.1" creator="VisuGPX - https://www.visugpx.com">
  <metadata>
    <name>eau_profil_Lapeyre_Quirbajou_PA</name>
  </metadata>
  <wpt lat="42.83028" lon="2.17925">
    <ele>821.7</ele>
    <name><![CDATA[Bassin]]></name>
  </wpt>
  <wpt lat="42.83101" lon="2.17744">
    <ele>822.6</ele>
    <name><![CDATA[P1]]></name>
  </wpt>
  <wpt lat="42.83314" lon="2.17271">
    <ele>872.6</ele>
    <name><![CDATA[V1]]></name>
  </wpt>
  <wpt lat="42.8337" lon="2.16857">
    <ele>851.7</ele>
    <name><![CDATA[P2]]></name>
  </wpt>
  <wpt lat="42.84172" lon="2.12468">
    <ele>980.9</ele>
    <name><![CDATA[P3]]></name>
  </wpt>
  <wpt lat="42.84132" lon="2.12331">
    <ele>978.6</ele>
    <name><![CDATA[V2]]></name>
  </wpt>
  <wpt lat="42.84052" lon="2.11948">
    <ele>969.9</ele>
    <name><![CDATA[V3]]></name>
  </wpt>
  <wpt lat="42.84154" lon="2.10955">
    <ele>935.4</ele>
    <name><![CDATA[V4]]></name>
  </wpt>
  <wpt lat="42.84304" lon="2.09958">
    <ele>899.1</ele>
    <name><![CDATA[Lapeyre (pompe)]]></name>
  </wpt>
  <trk>
    <name><![CDATA[Traces enregistrées avec OSMTracker pour Android™]]></name>
    <trkseg>
      <trkpt lat="42.83029" lon="2.17928">
        <ele>880</ele>
        <time>2020-07-26T15:05:18Z</time>
      </trkpt>
      <trkpt lat="42.83029" lon="2.17925">
        <ele>884</ele>
        <time>2020-07-26T15:05:21Z</time>
      </trkpt>
      <trkpt lat="42.83027" lon="2.17925">
        <ele>880</ele>
        <time>2020-07-26T15:05:38Z</time>
      </trkpt>
      <trkpt lat="42.83026" lon="2.17924">
        <ele>879</ele>
        <time>2020-07-26T15:05:41Z</time>
      </trkpt>
      <trkpt lat="42.83025" lon="2.17925">
        <ele>877</ele>
        <time>2020-07-26T15:05:43Z</time>
      </trkpt>
      <trkpt lat="42.83025" lon="2.17924">
        <ele>874</ele>
        <time>2020-07-26T15:05:46Z</time>
      </trkpt>
      <trkpt lat="42.83025" lon="2.17919">
        <ele>873</ele>
        <time>2020-07-26T15:05:48Z</time>
      </trkpt>
      <trkpt lat="42.83027" lon="2.17906">
        <ele>873</ele>
        <time>2020-07-26T15:05:52Z</time>
      </trkpt>
      <trkpt lat="42.83028" lon="2.17895">
        <ele>871</ele>
        <time>2020-07-26T15:05:56Z</time>
      </trkpt>
      <trkpt lat="42.8303" lon="2.17886">
        <ele>870</ele>
        <time>2020-07-26T15:05:58Z</time>
      </trkpt>
      <trkpt lat="42.83032" lon="2.1788">
        <ele>870</ele>
        <time>2020-07-26T15:06:00Z</time>
      </trkpt>
      <trkpt lat="42.83029" lon="2.17872">
        <ele>872</ele>
        <time>2020-07-26T15:06:04Z</time>
      </trkpt>
      <trkpt lat="42.83018" lon="2.1787">
        <ele>871</ele>
        <time>2020-07-26T15:06:08Z</time>
      </trkpt>
      <trkpt lat="42.83008" lon="2.17856">
        <ele>871</ele>
        <time>2020-07-26T15:06:12Z</time>
      </trkpt>
      <trkpt lat="42.83009" lon="2.17838">
        <ele>871</ele>
        <time>2020-07-26T15:06:16Z</time>
      </trkpt>
      <trkpt lat="42.83008" lon="2.17833">
        <ele>870</ele>
        <time>2020-07-26T15:06:18Z</time>
      </trkpt>
      <trkpt lat="42.83005" lon="2.17827">
        <ele>870</ele>
        <time>2020-07-26T15:06:20Z</time>
      </trkpt>
      <trkpt lat="42.83007" lon="2.17821">
        <ele>871</ele>
        <time>2020-07-26T15:06:22Z</time>
      </trkpt>
      <trkpt lat="42.83017" lon="2.17809">
        <ele>870</ele>
        <time>2020-07-26T15:06:26Z</time>
      </trkpt>
      <trkpt lat="42.83029" lon="2.17796">
        <ele>871</ele>
        <time>2020-07-26T15:06:31Z</time>
      </trkpt>
      <trkpt lat="42.83035" lon="2.17795">
        <ele>872</ele>
        <time>2020-07-26T15:06:33Z</time>
      </trkpt>
      <trkpt lat="42.83043" lon="2.17792">
        <ele>871</ele>
        <time>2020-07-26T15:06:35Z</time>
      </trkpt>
      <trkpt lat="42.83055" lon="2.1779">
        <ele>870</ele>
        <time>2020-07-26T15:06:38Z</time>
      </trkpt>
      <trkpt lat="42.83062" lon="2.17789">
        <ele>869</ele>
        <time>2020-07-26T15:06:40Z</time>
      </trkpt>
      <trkpt lat="42.83074" lon="2.17784">
        <ele>869</ele>
        <time>2020-07-26T15:06:44Z</time>
      </trkpt>
      <trkpt lat="42.83083" lon="2.17773">
        <ele>870</ele>
        <time>2020-07-26T15:06:48Z</time>
      </trkpt>
      <trkpt lat="42.83093" lon="2.17756">
        <ele>870</ele>
        <time>2020-07-26T15:06:53Z</time>
      </trkpt>
      <trkpt lat="42.83096" lon="2.17749">
        <ele>871</ele>
        <time>2020-07-26T15:06:55Z</time>
      </trkpt>
      <trkpt lat="42.83099" lon="2.17744">
        <ele>871</ele>
        <time>2020-07-26T15:06:57Z</time>
      </trkpt>
      <trkpt lat="42.83101" lon="2.17744">
        <ele>870</ele>
        <time>2020-07-26T15:07:01Z</time>
      </trkpt>
      <trkpt lat="42.83103" lon="2.17743">
        <ele>871</ele>
        <time>2020-07-26T15:07:32Z</time>
      </trkpt>
      <trkpt lat="42.83108" lon="2.17736">
        <ele>872</ele>
        <time>2020-07-26T15:07:36Z</time>
      </trkpt>
      <trkpt lat="42.83111" lon="2.17731">
        <ele>872</ele>
        <time>2020-07-26T15:07:38Z</time>
      </trkpt>
      <trkpt lat="42.83119" lon="2.17716">
        <ele>873</ele>
        <time>2020-07-26T15:07:42Z</time>
      </trkpt>
      <trkpt lat="42.83124" lon="2.17707">
        <ele>873</ele>
        <time>2020-07-26T15:07:45Z</time>
      </trkpt>
      <trkpt lat="42.83129" lon="2.17697">
        <ele>874</ele>
        <time>2020-07-26T15:07:49Z</time>
      </trkpt>
      <trkpt lat="42.83134" lon="2.17689">
        <ele>873</ele>
        <time>2020-07-26T15:07:53Z</time>
      </trkpt>
      <trkpt lat="42.83135" lon="2.17684">
        <ele>874</ele>
        <time>2020-07-26T15:07:55Z</time>
      </trkpt>
      <trkpt lat="42.83139" lon="2.17672">
        <ele>875</ele>
        <time>2020-07-26T15:07:59Z</time>
      </trkpt>
      <trkpt lat="42.83139" lon="2.17667">
        <ele>876</ele>
        <time>2020-07-26T15:08:01Z</time>
      </trkpt>
      <trkpt lat="42.83142" lon="2.17654">
        <ele>876</ele>
        <time>2020-07-26T15:08:05Z</time>
      </trkpt>
      <trkpt lat="42.83144" lon="2.17647">
        <ele>875</ele>
        <time>2020-07-26T15:08:07Z</time>
      </trkpt>
      <trkpt lat="42.8315" lon="2.17637">
        <ele>875</ele>
        <time>2020-07-26T15:08:11Z</time>
      </trkpt>
      <trkpt lat="42.83154" lon="2.17627">
        <ele>874</ele>
        <time>2020-07-26T15:08:15Z</time>
      </trkpt>
      <trkpt lat="42.83155" lon="2.17621">
        <ele>874</ele>
        <time>2020-07-26T15:08:17Z</time>
      </trkpt>
      <trkpt lat="42.83157" lon="2.17611">
        <ele>874</ele>
        <time>2020-07-26T15:08:20Z</time>
      </trkpt>
      <trkpt lat="42.83159" lon="2.17602">
        <ele>875</ele>
        <time>2020-07-26T15:08:23Z</time>
      </trkpt>
      <trkpt lat="42.8316" lon="2.17596">
        <ele>876</ele>
        <time>2020-07-26T15:08:25Z</time>
      </trkpt>
      <trkpt lat="42.83166" lon="2.17582">
        <ele>876</ele>
        <time>2020-07-26T15:08:29Z</time>
      </trkpt>
      <trkpt lat="42.83168" lon="2.17576">
        <ele>878</ele>
        <time>2020-07-26T15:08:31Z</time>
      </trkpt>
      <trkpt lat="42.83172" lon="2.17566">
        <ele>881</ele>
        <time>2020-07-26T15:08:35Z</time>
      </trkpt>
      <trkpt lat="42.83173" lon="2.17562">
        <ele>881</ele>
        <time>2020-07-26T15:08:37Z</time>
      </trkpt>
      <trkpt lat="42.83178" lon="2.17552">
        <ele>883</ele>
        <time>2020-07-26T15:08:41Z</time>
      </trkpt>
      <trkpt lat="42.83182" lon="2.17544">
        <ele>884</ele>
        <time>2020-07-26T15:08:45Z</time>
      </trkpt>
      <trkpt lat="42.83187" lon="2.17534">
        <ele>886</ele>
        <time>2020-07-26T15:08:49Z</time>
      </trkpt>
      <trkpt lat="42.83188" lon="2.17528">
        <ele>887</ele>
        <time>2020-07-26T15:08:51Z</time>
      </trkpt>
      <trkpt lat="42.83189" lon="2.17518">
        <ele>888</ele>
        <time>2020-07-26T15:08:54Z</time>
      </trkpt>
      <trkpt lat="42.83191" lon="2.17513">
        <ele>888</ele>
        <time>2020-07-26T15:08:56Z</time>
      </trkpt>
      <trkpt lat="42.83194" lon="2.17504">
        <ele>890</ele>
        <time>2020-07-26T15:09:00Z</time>
      </trkpt>
      <trkpt lat="42.83199" lon="2.17488">
        <ele>890</ele>
        <time>2020-07-26T15:09:04Z</time>
      </trkpt>
      <trkpt lat="42.83206" lon="2.17472">
        <ele>892</ele>
        <time>2020-07-26T15:09:08Z</time>
      </trkpt>
      <trkpt lat="42.83209" lon="2.17459">
        <ele>893</ele>
        <time>2020-07-26T15:09:12Z</time>
      </trkpt>
      <trkpt lat="42.83216" lon="2.17441">
        <ele>894</ele>
        <time>2020-07-26T15:09:16Z</time>
      </trkpt>
      <trkpt lat="42.83225" lon="2.17425">
        <ele>895</ele>
        <time>2020-07-26T15:09:20Z</time>
      </trkpt>
      <trkpt lat="42.8323" lon="2.17418">
        <ele>896</ele>
        <time>2020-07-26T15:09:22Z</time>
      </trkpt>
      <trkpt lat="42.83235" lon="2.17411">
        <ele>896</ele>
        <time>2020-07-26T15:09:24Z</time>
      </trkpt>
      <trkpt lat="42.83237" lon="2.17402">
        <ele>896</ele>
        <time>2020-07-26T15:09:26Z</time>
      </trkpt>
      <trkpt lat="42.83242" lon="2.17394">
        <ele>897</ele>
        <time>2020-07-26T15:09:28Z</time>
      </trkpt>
      <trkpt lat="42.83248" lon="2.17382">
        <ele>896</ele>
        <time>2020-07-26T15:09:31Z</time>
      </trkpt>
      <trkpt lat="42.83252" lon="2.17378">
        <ele>897</ele>
        <time>2020-07-26T15:09:33Z</time>
      </trkpt>
      <trkpt lat="42.83262" lon="2.17369">
        <ele>899</ele>
        <time>2020-07-26T15:09:37Z</time>
      </trkpt>
      <trkpt lat="42.8327" lon="2.17366">
        <ele>899</ele>
        <time>2020-07-26T15:09:40Z</time>
      </trkpt>
      <trkpt lat="42.83278" lon="2.17368">
        <ele>900</ele>
        <time>2020-07-26T15:09:43Z</time>
      </trkpt>
      <trkpt lat="42.83281" lon="2.1737">
        <ele>900</ele>
        <time>2020-07-26T15:09:45Z</time>
      </trkpt>
      <trkpt lat="42.83286" lon="2.17375">
        <ele>900</ele>
        <time>2020-07-26T15:09:48Z</time>
      </trkpt>
      <trkpt lat="42.83292" lon="2.17375">
        <ele>900</ele>
        <time>2020-07-26T15:09:52Z</time>
      </trkpt>
      <trkpt lat="42.83294" lon="2.1737">
        <ele>900</ele>
        <time>2020-07-26T15:09:54Z</time>
      </trkpt>
      <trkpt lat="42.83293" lon="2.17363">
        <ele>901</ele>
        <time>2020-07-26T15:09:58Z</time>
      </trkpt>
      <trkpt lat="42.83292" lon="2.17355">
        <ele>902</ele>
        <time>2020-07-26T15:10:02Z</time>
      </trkpt>
      <trkpt lat="42.8329" lon="2.17341">
        <ele>903</ele>
        <time>2020-07-26T15:10:07Z</time>
      </trkpt>
      <trkpt lat="42.83287" lon="2.17335">
        <ele>903</ele>
        <time>2020-07-26T15:10:09Z</time>
      </trkpt>
      <trkpt lat="42.83285" lon="2.17329">
        <ele>903</ele>
        <time>2020-07-26T15:10:11Z</time>
      </trkpt>
      <trkpt lat="42.83281" lon="2.17317">
        <ele>904</ele>
        <time>2020-07-26T15:10:15Z</time>
      </trkpt>
      <trkpt lat="42.83285" lon="2.17305">
        <ele>906</ele>
        <time>2020-07-26T15:10:19Z</time>
      </trkpt>
      <trkpt lat="42.8329" lon="2.17305">
        <ele>906</ele>
        <time>2020-07-26T15:10:21Z</time>
      </trkpt>
      <trkpt lat="42.83295" lon="2.17303">
        <ele>906</ele>
        <time>2020-07-26T15:10:23Z</time>
      </trkpt>
      <trkpt lat="42.83301" lon="2.17294">
        <ele>907</ele>
        <time>2020-07-26T15:10:27Z</time>
      </trkpt>
      <trkpt lat="42.83302" lon="2.17289">
        <ele>908</ele>
        <time>2020-07-26T15:10:29Z</time>
      </trkpt>
      <trkpt lat="42.83305" lon="2.17287">
        <ele>908</ele>
        <time>2020-07-26T15:10:32Z</time>
      </trkpt>
      <trkpt lat="42.83307" lon="2.17286">
        <ele>910</ele>
        <time>2020-07-26T15:10:41Z</time>
      </trkpt>
      <trkpt lat="42.83309" lon="2.17288">
        <ele>910</ele>
        <time>2020-07-26T15:10:43Z</time>
      </trkpt>
      <trkpt lat="42.83312" lon="2.17287">
        <ele>912</ele>
        <time>2020-07-26T15:10:45Z</time>
      </trkpt>
      <trkpt lat="42.83311" lon="2.17285">
        <ele>913</ele>
        <time>2020-07-26T15:10:48Z</time>
      </trkpt>
      <trkpt lat="42.83312" lon="2.17282">
        <ele>915</ele>
        <time>2020-07-26T15:10:53Z</time>
      </trkpt>
      <trkpt lat="42.83313" lon="2.17277">
        <ele>916</ele>
        <time>2020-07-26T15:10:57Z</time>
      </trkpt>
      <trkpt lat="42.83314" lon="2.17272">
        <ele>917</ele>
        <time>2020-07-26T15:11:01Z</time>
      </trkpt>
      <trkpt lat="42.83313" lon="2.17272">
        <ele>919</ele>
        <time>2020-07-26T15:11:16Z</time>
      </trkpt>
      <trkpt lat="42.83311" lon="2.17278">
        <ele>919</ele>
        <time>2020-07-26T15:11:20Z</time>
      </trkpt>
      <trkpt lat="42.8331" lon="2.1728">
        <ele>919</ele>
        <time>2020-07-26T15:11:22Z</time>
      </trkpt>
      <trkpt lat="42.83307" lon="2.17283">
        <ele>920</ele>
        <time>2020-07-26T15:11:26Z</time>
      </trkpt>
      <trkpt lat="42.83303" lon="2.17283">
        <ele>920</ele>
        <time>2020-07-26T15:11:30Z</time>
      </trkpt>
      <trkpt lat="42.83303" lon="2.17281">
        <ele>920</ele>
        <time>2020-07-26T15:11:32Z</time>
      </trkpt>
      <trkpt lat="42.83304" lon="2.17279">
        <ele>920</ele>
        <time>2020-07-26T15:11:38Z</time>
      </trkpt>
      <trkpt lat="42.83305" lon="2.17274">
        <ele>920</ele>
        <time>2020-07-26T15:11:40Z</time>
      </trkpt>
      <trkpt lat="42.83307" lon="2.17262">
        <ele>920</ele>
        <time>2020-07-26T15:11:44Z</time>
      </trkpt>
      <trkpt lat="42.83309" lon="2.17249">
        <ele>920</ele>
        <time>2020-07-26T15:11:48Z</time>
      </trkpt>
      <trkpt lat="42.8331" lon="2.17243">
        <ele>920</ele>
        <time>2020-07-26T15:11:50Z</time>
      </trkpt>
      <trkpt lat="42.83311" lon="2.1723">
        <ele>920</ele>
        <time>2020-07-26T15:11:54Z</time>
      </trkpt>
      <trkpt lat="42.83309" lon="2.1722">
        <ele>919</ele>
        <time>2020-07-26T15:11:57Z</time>
      </trkpt>
      <trkpt lat="42.83309" lon="2.17214">
        <ele>920</ele>
        <time>2020-07-26T15:11:59Z</time>
      </trkpt>
      <trkpt lat="42.83308" lon="2.17201">
        <ele>919</ele>
        <time>2020-07-26T15:12:03Z</time>
      </trkpt>
      <trkpt lat="42.83308" lon="2.17196">
        <ele>919</ele>
        <time>2020-07-26T15:12:05Z</time>
      </trkpt>
      <trkpt lat="42.83312" lon="2.17182">
        <ele>918</ele>
        <time>2020-07-26T15:12:09Z</time>
      </trkpt>
      <trkpt lat="42.83317" lon="2.17171">
        <ele>918</ele>
        <time>2020-07-26T15:12:13Z</time>
      </trkpt>
      <trkpt lat="42.83326" lon="2.17158">
        <ele>919</ele>
        <time>2020-07-26T15:12:17Z</time>
      </trkpt>
      <trkpt lat="42.83334" lon="2.17144">
        <ele>919</ele>
        <time>2020-07-26T15:12:21Z</time>
      </trkpt>
      <trkpt lat="42.83339" lon="2.17133">
        <ele>919</ele>
        <time>2020-07-26T15:12:24Z</time>
      </trkpt>
      <trkpt lat="42.83344" lon="2.17114">
        <ele>918</ele>
        <time>2020-07-26T15:12:28Z</time>
      </trkpt>
      <trkpt lat="42.83347" lon="2.17093">
        <ele>918</ele>
        <time>2020-07-26T15:12:32Z</time>
      </trkpt>
      <trkpt lat="42.83348" lon="2.17076">
        <ele>918</ele>
        <time>2020-07-26T15:12:36Z</time>
      </trkpt>
      <trkpt lat="42.83349" lon="2.17065">
        <ele>917</ele>
        <time>2020-07-26T15:12:39Z</time>
      </trkpt>
      <trkpt lat="42.83348" lon="2.17052">
        <ele>917</ele>
        <time>2020-07-26T15:12:42Z</time>
      </trkpt>
      <trkpt lat="42.83348" lon="2.17043">
        <ele>917</ele>
        <time>2020-07-26T15:12:44Z</time>
      </trkpt>
      <trkpt lat="42.83346" lon="2.17021">
        <ele>917</ele>
        <time>2020-07-26T15:12:49Z</time>
      </trkpt>
      <trkpt lat="42.83345" lon="2.17003">
        <ele>915</ele>
        <time>2020-07-26T15:12:53Z</time>
      </trkpt>
      <trkpt lat="42.83343" lon="2.1699">
        <ele>914</ele>
        <time>2020-07-26T15:12:57Z</time>
      </trkpt>
      <trkpt lat="42.83342" lon="2.16983">
        <ele>914</ele>
        <time>2020-07-26T15:12:59Z</time>
      </trkpt>
      <trkpt lat="42.83344" lon="2.16967">
        <ele>912</ele>
        <time>2020-07-26T15:13:03Z</time>
      </trkpt>
      <trkpt lat="42.83346" lon="2.16949">
        <ele>911</ele>
        <time>2020-07-26T15:13:07Z</time>
      </trkpt>
      <trkpt lat="42.83348" lon="2.16935">
        <ele>911</ele>
        <time>2020-07-26T15:13:10Z</time>
      </trkpt>
      <trkpt lat="42.83351" lon="2.16922">
        <ele>910</ele>
        <time>2020-07-26T15:13:13Z</time>
      </trkpt>
      <trkpt lat="42.83353" lon="2.16913">
        <ele>909</ele>
        <time>2020-07-26T15:13:15Z</time>
      </trkpt>
      <trkpt lat="42.83354" lon="2.16904">
        <ele>909</ele>
        <time>2020-07-26T15:13:17Z</time>
      </trkpt>
      <trkpt lat="42.8336" lon="2.16888">
        <ele>908</ele>
        <time>2020-07-26T15:13:21Z</time>
      </trkpt>
      <trkpt lat="42.83363" lon="2.16879">
        <ele>908</ele>
        <time>2020-07-26T15:13:23Z</time>
      </trkpt>
      <trkpt lat="42.83365" lon="2.16871">
        <ele>908</ele>
        <time>2020-07-26T15:13:25Z</time>
      </trkpt>
      <trkpt lat="42.83368" lon="2.16858">
        <ele>908</ele>
        <time>2020-07-26T15:13:30Z</time>
      </trkpt>
      <trkpt lat="42.83368" lon="2.16857">
        <ele>907</ele>
        <time>2020-07-26T15:13:33Z</time>
      </trkpt>
      <trkpt lat="42.83368" lon="2.16858">
        <ele>908</ele>
        <time>2020-07-26T15:13:37Z</time>
      </trkpt>
      <trkpt lat="42.8337" lon="2.16857">
        <ele>908</ele>
        <time>2020-07-26T15:13:41Z</time>
      </trkpt>
      <trkpt lat="42.8337" lon="2.16859">
        <ele>908</ele>
        <time>2020-07-26T15:13:52Z</time>
      </trkpt>
      <trkpt lat="42.83368" lon="2.16857">
        <ele>909</ele>
        <time>2020-07-26T15:14:03Z</time>
      </trkpt>
      <trkpt lat="42.83365" lon="2.16856">
        <ele>909</ele>
        <time>2020-07-26T15:14:07Z</time>
      </trkpt>
      <trkpt lat="42.83366" lon="2.16855">
        <ele>910</ele>
        <time>2020-07-26T15:14:15Z</time>
      </trkpt>
      <trkpt lat="42.83366" lon="2.16852">
        <ele>910</ele>
        <time>2020-07-26T15:14:30Z</time>
      </trkpt>
      <trkpt lat="42.83368" lon="2.16848">
        <ele>909</ele>
        <time>2020-07-26T15:14:32Z</time>
      </trkpt>
      <trkpt lat="42.83369" lon="2.16843">
        <ele>909</ele>
        <time>2020-07-26T15:14:34Z</time>
      </trkpt>
      <trkpt lat="42.83371" lon="2.16832">
        <ele>910</ele>
        <time>2020-07-26T15:14:38Z</time>
      </trkpt>
      <trkpt lat="42.83373" lon="2.16825">
        <ele>910</ele>
        <time>2020-07-26T15:14:40Z</time>
      </trkpt>
      <trkpt lat="42.83376" lon="2.16812">
        <ele>911</ele>
        <time>2020-07-26T15:14:44Z</time>
      </trkpt>
      <trkpt lat="42.83378" lon="2.16804">
        <ele>910</ele>
        <time>2020-07-26T15:14:47Z</time>
      </trkpt>
      <trkpt lat="42.83381" lon="2.1679">
        <ele>911</ele>
        <time>2020-07-26T15:14:51Z</time>
      </trkpt>
      <trkpt lat="42.83383" lon="2.16784">
        <ele>911</ele>
        <time>2020-07-26T15:14:53Z</time>
      </trkpt>
      <trkpt lat="42.83386" lon="2.16773">
        <ele>911</ele>
        <time>2020-07-26T15:14:56Z</time>
      </trkpt>
      <trkpt lat="42.83389" lon="2.16766">
        <ele>911</ele>
        <time>2020-07-26T15:14:58Z</time>
      </trkpt>
      <trkpt lat="42.83391" lon="2.16758">
        <ele>912</ele>
        <time>2020-07-26T15:15:00Z</time>
      </trkpt>
      <trkpt lat="42.83392" lon="2.16749">
        <ele>912</ele>
        <time>2020-07-26T15:15:02Z</time>
      </trkpt>
      <trkpt lat="42.83398" lon="2.16735">
        <ele>912</ele>
        <time>2020-07-26T15:15:06Z</time>
      </trkpt>
      <trkpt lat="42.83404" lon="2.16722">
        <ele>912</ele>
        <time>2020-07-26T15:15:10Z</time>
      </trkpt>
      <trkpt lat="42.83408" lon="2.16716">
        <ele>912</ele>
        <time>2020-07-26T15:15:12Z</time>
      </trkpt>
      <trkpt lat="42.83416" lon="2.16706">
        <ele>912</ele>
        <time>2020-07-26T15:15:16Z</time>
      </trkpt>
      <trkpt lat="42.83423" lon="2.16692">
        <ele>913</ele>
        <time>2020-07-26T15:15:20Z</time>
      </trkpt>
      <trkpt lat="42.83425" lon="2.16686">
        <ele>913</ele>
        <time>2020-07-26T15:15:22Z</time>
      </trkpt>
      <trkpt lat="42.83432" lon="2.1667">
        <ele>914</ele>
        <time>2020-07-26T15:15:27Z</time>
      </trkpt>
      <trkpt lat="42.83441" lon="2.16661">
        <ele>914</ele>
        <time>2020-07-26T15:15:31Z</time>
      </trkpt>
      <trkpt lat="42.83445" lon="2.16656">
        <ele>915</ele>
        <time>2020-07-26T15:15:33Z</time>
      </trkpt>
      <trkpt lat="42.83451" lon="2.16653">
        <ele>915</ele>
        <time>2020-07-26T15:15:35Z</time>
      </trkpt>
      <trkpt lat="42.83464" lon="2.16656">
        <ele>915</ele>
        <time>2020-07-26T15:15:39Z</time>
      </trkpt>
      <trkpt lat="42.83469" lon="2.16661">
        <ele>916</ele>
        <time>2020-07-26T15:15:41Z</time>
      </trkpt>
      <trkpt lat="42.83476" lon="2.16674">
        <ele>917</ele>
        <time>2020-07-26T15:15:45Z</time>
      </trkpt>
      <trkpt lat="42.83481" lon="2.16686">
        <ele>917</ele>
        <time>2020-07-26T15:15:49Z</time>
      </trkpt>
      <trkpt lat="42.83485" lon="2.16693">
        <ele>917</ele>
        <time>2020-07-26T15:15:51Z</time>
      </trkpt>
      <trkpt lat="42.83497" lon="2.16702">
        <ele>918</ele>
        <time>2020-07-26T15:15:55Z</time>
      </trkpt>
      <trkpt lat="42.83504" lon="2.16704">
        <ele>918</ele>
        <time>2020-07-26T15:15:57Z</time>
      </trkpt>
      <trkpt lat="42.8351" lon="2.16702">
        <ele>918</ele>
        <time>2020-07-26T15:15:59Z</time>
      </trkpt>
      <trkpt lat="42.8352" lon="2.16691">
        <ele>919</ele>
        <time>2020-07-26T15:16:03Z</time>
      </trkpt>
      <trkpt lat="42.83524" lon="2.16685">
        <ele>919</ele>
        <time>2020-07-26T15:16:05Z</time>
      </trkpt>
      <trkpt lat="42.83535" lon="2.16669">
        <ele>922</ele>
        <time>2020-07-26T15:16:10Z</time>
      </trkpt>
      <trkpt lat="42.83545" lon="2.1666">
        <ele>923</ele>
        <time>2020-07-26T15:16:14Z</time>
      </trkpt>
      <trkpt lat="42.83553" lon="2.16649">
        <ele>923</ele>
        <time>2020-07-26T15:16:18Z</time>
      </trkpt>
      <trkpt lat="42.83563" lon="2.1663">
        <ele>923</ele>
        <time>2020-07-26T15:16:23Z</time>
      </trkpt>
      <trkpt lat="42.8357" lon="2.16616">
        <ele>924</ele>
        <time>2020-07-26T15:16:27Z</time>
      </trkpt>
      <trkpt lat="42.83573" lon="2.16609">
        <ele>925</ele>
        <time>2020-07-26T15:16:29Z</time>
      </trkpt>
      <trkpt lat="42.83576" lon="2.16601">
        <ele>924</ele>
        <time>2020-07-26T15:16:31Z</time>
      </trkpt>
      <trkpt lat="42.8358" lon="2.16595">
        <ele>924</ele>
        <time>2020-07-26T15:16:33Z</time>
      </trkpt>
      <trkpt lat="42.83585" lon="2.16579">
        <ele>924</ele>
        <time>2020-07-26T15:16:37Z</time>
      </trkpt>
      <trkpt lat="42.83587" lon="2.1657">
        <ele>925</ele>
        <time>2020-07-26T15:16:39Z</time>
      </trkpt>
      <trkpt lat="42.83592" lon="2.16554">
        <ele>926</ele>
        <time>2020-07-26T15:16:43Z</time>
      </trkpt>
      <trkpt lat="42.83594" lon="2.16545">
        <ele>927</ele>
        <time>2020-07-26T15:16:45Z</time>
      </trkpt>
      <trkpt lat="42.83598" lon="2.1653">
        <ele>928</ele>
        <time>2020-07-26T15:16:49Z</time>
      </trkpt>
      <trkpt lat="42.83599" lon="2.16521">
        <ele>928</ele>
        <time>2020-07-26T15:16:51Z</time>
      </trkpt>
      <trkpt lat="42.836" lon="2.16512">
        <ele>929</ele>
        <time>2020-07-26T15:16:53Z</time>
      </trkpt>
      <trkpt lat="42.836" lon="2.16503">
        <ele>929</ele>
        <time>2020-07-26T15:16:55Z</time>
      </trkpt>
      <trkpt lat="42.83601" lon="2.16496">
        <ele>929</ele>
        <time>2020-07-26T15:16:57Z</time>
      </trkpt>
      <trkpt lat="42.83599" lon="2.16486">
        <ele>929</ele>
        <time>2020-07-26T15:17:00Z</time>
      </trkpt>
      <trkpt lat="42.83597" lon="2.16481">
        <ele>929</ele>
        <time>2020-07-26T15:17:02Z</time>
      </trkpt>
      <trkpt lat="42.83594" lon="2.16475">
        <ele>929</ele>
        <time>2020-07-26T15:17:04Z</time>
      </trkpt>
      <trkpt lat="42.83585" lon="2.16466">
        <ele>930</ele>
        <time>2020-07-26T15:17:08Z</time>
      </trkpt>
      <trkpt lat="42.83577" lon="2.1645">
        <ele>930</ele>
        <time>2020-07-26T15:17:12Z</time>
      </trkpt>
      <trkpt lat="42.83574" lon="2.1643">
        <ele>930</ele>
        <time>2020-07-26T15:17:16Z</time>
      </trkpt>
      <trkpt lat="42.83574" lon="2.16421">
        <ele>931</ele>
        <time>2020-07-26T15:17:18Z</time>
      </trkpt>
      <trkpt lat="42.83573" lon="2.16403">
        <ele>930</ele>
        <time>2020-07-26T15:17:22Z</time>
      </trkpt>
      <trkpt lat="42.83576" lon="2.16389">
        <ele>930</ele>
        <time>2020-07-26T15:17:25Z</time>
      </trkpt>
      <trkpt lat="42.83578" lon="2.1638">
        <ele>930</ele>
        <time>2020-07-26T15:17:27Z</time>
      </trkpt>
      <trkpt lat="42.83583" lon="2.16363">
        <ele>930</ele>
        <time>2020-07-26T15:17:31Z</time>
      </trkpt>
      <trkpt lat="42.83586" lon="2.16346">
        <ele>931</ele>
        <time>2020-07-26T15:17:35Z</time>
      </trkpt>
      <trkpt lat="42.83585" lon="2.16337">
        <ele>932</ele>
        <time>2020-07-26T15:17:37Z</time>
      </trkpt>
      <trkpt lat="42.83583" lon="2.1633">
        <ele>932</ele>
        <time>2020-07-26T15:17:39Z</time>
      </trkpt>
      <trkpt lat="42.8358" lon="2.16324">
        <ele>933</ele>
        <time>2020-07-26T15:17:41Z</time>
      </trkpt>
      <trkpt lat="42.83572" lon="2.16312">
        <ele>933</ele>
        <time>2020-07-26T15:17:45Z</time>
      </trkpt>
      <trkpt lat="42.83567" lon="2.16293">
        <ele>933</ele>
        <time>2020-07-26T15:17:49Z</time>
      </trkpt>
      <trkpt lat="42.83568" lon="2.16274">
        <ele>933</ele>
        <time>2020-07-26T15:17:53Z</time>
      </trkpt>
      <trkpt lat="42.8357" lon="2.16256">
        <ele>936</ele>
        <time>2020-07-26T15:17:57Z</time>
      </trkpt>
      <trkpt lat="42.83572" lon="2.16238">
        <ele>937</ele>
        <time>2020-07-26T15:18:01Z</time>
      </trkpt>
      <trkpt lat="42.83573" lon="2.1622">
        <ele>938</ele>
        <time>2020-07-26T15:18:05Z</time>
      </trkpt>
      <trkpt lat="42.83576" lon="2.16204">
        <ele>939</ele>
        <time>2020-07-26T15:18:09Z</time>
      </trkpt>
      <trkpt lat="42.83583" lon="2.16188">
        <ele>939</ele>
        <time>2020-07-26T15:18:13Z</time>
      </trkpt>
      <trkpt lat="42.83589" lon="2.16175">
        <ele>942</ele>
        <time>2020-07-26T15:18:17Z</time>
      </trkpt>
      <trkpt lat="42.83591" lon="2.16169">
        <ele>943</ele>
        <time>2020-07-26T15:18:19Z</time>
      </trkpt>
      <trkpt lat="42.83594" lon="2.16161">
        <ele>943</ele>
        <time>2020-07-26T15:18:21Z</time>
      </trkpt>
      <trkpt lat="42.83601" lon="2.16144">
        <ele>944</ele>
        <time>2020-07-26T15:18:26Z</time>
      </trkpt>
      <trkpt lat="42.83604" lon="2.16137">
        <ele>944</ele>
        <time>2020-07-26T15:18:28Z</time>
      </trkpt>
      <trkpt lat="42.83611" lon="2.16122">
        <ele>946</ele>
        <time>2020-07-26T15:18:32Z</time>
      </trkpt>
      <trkpt lat="42.83616" lon="2.16104">
        <ele>947</ele>
        <time>2020-07-26T15:18:36Z</time>
      </trkpt>
      <trkpt lat="42.83617" lon="2.16085">
        <ele>947</ele>
        <time>2020-07-26T15:18:40Z</time>
      </trkpt>
      <trkpt lat="42.83623" lon="2.16068">
        <ele>949</ele>
        <time>2020-07-26T15:18:44Z</time>
      </trkpt>
      <trkpt lat="42.83625" lon="2.16058">
        <ele>950</ele>
        <time>2020-07-26T15:18:46Z</time>
      </trkpt>
      <trkpt lat="42.83627" lon="2.1605">
        <ele>950</ele>
        <time>2020-07-26T15:18:48Z</time>
      </trkpt>
      <trkpt lat="42.83627" lon="2.16033">
        <ele>951</ele>
        <time>2020-07-26T15:18:52Z</time>
      </trkpt>
      <trkpt lat="42.83635" lon="2.1602">
        <ele>949</ele>
        <time>2020-07-26T15:18:56Z</time>
      </trkpt>
      <trkpt lat="42.83639" lon="2.16016">
        <ele>951</ele>
        <time>2020-07-26T15:18:58Z</time>
      </trkpt>
      <trkpt lat="42.83647" lon="2.16012">
        <ele>951</ele>
        <time>2020-07-26T15:19:01Z</time>
      </trkpt>
      <trkpt lat="42.83655" lon="2.16">
        <ele>952</ele>
        <time>2020-07-26T15:19:05Z</time>
      </trkpt>
      <trkpt lat="42.83658" lon="2.15991">
        <ele>953</ele>
        <time>2020-07-26T15:19:07Z</time>
      </trkpt>
      <trkpt lat="42.83664" lon="2.15977">
        <ele>953</ele>
        <time>2020-07-26T15:19:11Z</time>
      </trkpt>
      <trkpt lat="42.83669" lon="2.15968">
        <ele>953</ele>
        <time>2020-07-26T15:19:13Z</time>
      </trkpt>
      <trkpt lat="42.83677" lon="2.15952">
        <ele>952</ele>
        <time>2020-07-26T15:19:17Z</time>
      </trkpt>
      <trkpt lat="42.83681" lon="2.15945">
        <ele>953</ele>
        <time>2020-07-26T15:19:19Z</time>
      </trkpt>
      <trkpt lat="42.83685" lon="2.15938">
        <ele>953</ele>
        <time>2020-07-26T15:19:21Z</time>
      </trkpt>
      <trkpt lat="42.8369" lon="2.15924">
        <ele>953</ele>
        <time>2020-07-26T15:19:25Z</time>
      </trkpt>
      <trkpt lat="42.83693" lon="2.15918">
        <ele>954</ele>
        <time>2020-07-26T15:19:27Z</time>
      </trkpt>
      <trkpt lat="42.83696" lon="2.15907">
        <ele>953</ele>
        <time>2020-07-26T15:19:31Z</time>
      </trkpt>
      <trkpt lat="42.83698" lon="2.15905">
        <ele>954</ele>
        <time>2020-07-26T15:19:33Z</time>
      </trkpt>
      <trkpt lat="42.83701" lon="2.15894">
        <ele>955</ele>
        <time>2020-07-26T15:19:36Z</time>
      </trkpt>
      <trkpt lat="42.83704" lon="2.15886">
        <ele>954</ele>
        <time>2020-07-26T15:19:38Z</time>
      </trkpt>
      <trkpt lat="42.83711" lon="2.15872">
        <ele>954</ele>
        <time>2020-07-26T15:19:42Z</time>
      </trkpt>
      <trkpt lat="42.83713" lon="2.15866">
        <ele>954</ele>
        <time>2020-07-26T15:19:44Z</time>
      </trkpt>
      <trkpt lat="42.83719" lon="2.15853">
        <ele>956</ele>
        <time>2020-07-26T15:19:48Z</time>
      </trkpt>
      <trkpt lat="42.8372" lon="2.15844">
        <ele>956</ele>
        <time>2020-07-26T15:19:50Z</time>
      </trkpt>
      <trkpt lat="42.83719" lon="2.15832">
        <ele>957</ele>
        <time>2020-07-26T15:19:53Z</time>
      </trkpt>
      <trkpt lat="42.8372" lon="2.15822">
        <ele>958</ele>
        <time>2020-07-26T15:19:57Z</time>
      </trkpt>
      <trkpt lat="42.8372" lon="2.15816">
        <ele>958</ele>
        <time>2020-07-26T15:19:59Z</time>
      </trkpt>
      <trkpt lat="42.83721" lon="2.15803">
        <ele>958</ele>
        <time>2020-07-26T15:20:03Z</time>
      </trkpt>
      <trkpt lat="42.83723" lon="2.15782">
        <ele>959</ele>
        <time>2020-07-26T15:20:07Z</time>
      </trkpt>
      <trkpt lat="42.83726" lon="2.15764">
        <ele>959</ele>
        <time>2020-07-26T15:20:11Z</time>
      </trkpt>
      <trkpt lat="42.83727" lon="2.15754">
        <ele>958</ele>
        <time>2020-07-26T15:20:13Z</time>
      </trkpt>
      <trkpt lat="42.83729" lon="2.15745">
        <ele>959</ele>
        <time>2020-07-26T15:20:15Z</time>
      </trkpt>
      <trkpt lat="42.8373" lon="2.15729">
        <ele>960</ele>
        <time>2020-07-26T15:20:19Z</time>
      </trkpt>
      <trkpt lat="42.83733" lon="2.15714">
        <ele>960</ele>
        <time>2020-07-26T15:20:23Z</time>
      </trkpt>
      <trkpt lat="42.83736" lon="2.15698">
        <ele>961</ele>
        <time>2020-07-26T15:20:27Z</time>
      </trkpt>
      <trkpt lat="42.83739" lon="2.15682">
        <ele>963</ele>
        <time>2020-07-26T15:20:31Z</time>
      </trkpt>
      <trkpt lat="42.83743" lon="2.15668">
        <ele>963</ele>
        <time>2020-07-26T15:20:34Z</time>
      </trkpt>
      <trkpt lat="42.83749" lon="2.1565">
        <ele>962</ele>
        <time>2020-07-26T15:20:38Z</time>
      </trkpt>
      <trkpt lat="42.83751" lon="2.15641">
        <ele>962</ele>
        <time>2020-07-26T15:20:40Z</time>
      </trkpt>
      <trkpt lat="42.83758" lon="2.15628">
        <ele>963</ele>
        <time>2020-07-26T15:20:44Z</time>
      </trkpt>
      <trkpt lat="42.83763" lon="2.15615">
        <ele>964</ele>
        <time>2020-07-26T15:20:48Z</time>
      </trkpt>
      <trkpt lat="42.83769" lon="2.15602">
        <ele>966</ele>
        <time>2020-07-26T15:20:52Z</time>
      </trkpt>
      <trkpt lat="42.83774" lon="2.15591">
        <ele>966</ele>
        <time>2020-07-26T15:20:55Z</time>
      </trkpt>
      <trkpt lat="42.83781" lon="2.15576">
        <ele>968</ele>
        <time>2020-07-26T15:20:59Z</time>
      </trkpt>
      <trkpt lat="42.83783" lon="2.15567">
        <ele>967</ele>
        <time>2020-07-26T15:21:01Z</time>
      </trkpt>
      <trkpt lat="42.83786" lon="2.1556">
        <ele>967</ele>
        <time>2020-07-26T15:21:03Z</time>
      </trkpt>
      <trkpt lat="42.83791" lon="2.15548">
        <ele>967</ele>
        <time>2020-07-26T15:21:06Z</time>
      </trkpt>
      <trkpt lat="42.83795" lon="2.15533">
        <ele>968</ele>
        <time>2020-07-26T15:21:10Z</time>
      </trkpt>
      <trkpt lat="42.83797" lon="2.15526">
        <ele>968</ele>
        <time>2020-07-26T15:21:12Z</time>
      </trkpt>
      <trkpt lat="42.83799" lon="2.15518">
        <ele>968</ele>
        <time>2020-07-26T15:21:14Z</time>
      </trkpt>
      <trkpt lat="42.83802" lon="2.15506">
        <ele>968</ele>
        <time>2020-07-26T15:21:17Z</time>
      </trkpt>
      <trkpt lat="42.83807" lon="2.1549">
        <ele>969</ele>
        <time>2020-07-26T15:21:21Z</time>
      </trkpt>
      <trkpt lat="42.83812" lon="2.15476">
        <ele>969</ele>
        <time>2020-07-26T15:21:25Z</time>
      </trkpt>
      <trkpt lat="42.83817" lon="2.1546">
        <ele>970</ele>
        <time>2020-07-26T15:21:29Z</time>
      </trkpt>
      <trkpt lat="42.8382" lon="2.15444">
        <ele>971</ele>
        <time>2020-07-26T15:21:33Z</time>
      </trkpt>
      <trkpt lat="42.83822" lon="2.15437">
        <ele>971</ele>
        <time>2020-07-26T15:21:35Z</time>
      </trkpt>
      <trkpt lat="42.83826" lon="2.15422">
        <ele>973</ele>
        <time>2020-07-26T15:21:39Z</time>
      </trkpt>
      <trkpt lat="42.8383" lon="2.15406">
        <ele>973</ele>
        <time>2020-07-26T15:21:43Z</time>
      </trkpt>
      <trkpt lat="42.83832" lon="2.15397">
        <ele>973</ele>
        <time>2020-07-26T15:21:45Z</time>
      </trkpt>
      <trkpt lat="42.83836" lon="2.15378">
        <ele>975</ele>
        <time>2020-07-26T15:21:50Z</time>
      </trkpt>
      <trkpt lat="42.83838" lon="2.15364">
        <ele>976</ele>
        <time>2020-07-26T15:21:54Z</time>
      </trkpt>
      <trkpt lat="42.83839" lon="2.15356">
        <ele>976</ele>
        <time>2020-07-26T15:21:56Z</time>
      </trkpt>
      <trkpt lat="42.83842" lon="2.15341">
        <ele>978</ele>
        <time>2020-07-26T15:22:00Z</time>
      </trkpt>
      <trkpt lat="42.83846" lon="2.15328">
        <ele>978</ele>
        <time>2020-07-26T15:22:04Z</time>
      </trkpt>
      <trkpt lat="42.83849" lon="2.15322">
        <ele>979</ele>
        <time>2020-07-26T15:22:06Z</time>
      </trkpt>
      <trkpt lat="42.83854" lon="2.15309">
        <ele>979</ele>
        <time>2020-07-26T15:22:10Z</time>
      </trkpt>
      <trkpt lat="42.83857" lon="2.15302">
        <ele>979</ele>
        <time>2020-07-26T15:22:12Z</time>
      </trkpt>
      <trkpt lat="42.83862" lon="2.15288">
        <ele>981</ele>
        <time>2020-07-26T15:22:16Z</time>
      </trkpt>
      <trkpt lat="42.83866" lon="2.15283">
        <ele>981</ele>
        <time>2020-07-26T15:22:18Z</time>
      </trkpt>
      <trkpt lat="42.83873" lon="2.15271">
        <ele>983</ele>
        <time>2020-07-26T15:22:22Z</time>
      </trkpt>
      <trkpt lat="42.83876" lon="2.15265">
        <ele>982</ele>
        <time>2020-07-26T15:22:24Z</time>
      </trkpt>
      <trkpt lat="42.83882" lon="2.15252">
        <ele>983</ele>
        <time>2020-07-26T15:22:28Z</time>
      </trkpt>
      <trkpt lat="42.83887" lon="2.15245">
        <ele>984</ele>
        <time>2020-07-26T15:22:31Z</time>
      </trkpt>
      <trkpt lat="42.8389" lon="2.15241">
        <ele>986</ele>
        <time>2020-07-26T15:22:33Z</time>
      </trkpt>
      <trkpt lat="42.83896" lon="2.15224">
        <ele>984</ele>
        <time>2020-07-26T15:22:37Z</time>
      </trkpt>
      <trkpt lat="42.83901" lon="2.15217">
        <ele>984</ele>
        <time>2020-07-26T15:22:39Z</time>
      </trkpt>
      <trkpt lat="42.83907" lon="2.15203">
        <ele>984</ele>
        <time>2020-07-26T15:22:43Z</time>
      </trkpt>
      <trkpt lat="42.83913" lon="2.15196">
        <ele>983</ele>
        <time>2020-07-26T15:22:47Z</time>
      </trkpt>
      <trkpt lat="42.83917" lon="2.15188">
        <ele>983</ele>
        <time>2020-07-26T15:22:51Z</time>
      </trkpt>
      <trkpt lat="42.83921" lon="2.15184">
        <ele>984</ele>
        <time>2020-07-26T15:22:53Z</time>
      </trkpt>
      <trkpt lat="42.83922" lon="2.15178">
        <ele>986</ele>
        <time>2020-07-26T15:22:55Z</time>
      </trkpt>
      <trkpt lat="42.83925" lon="2.15172">
        <ele>988</ele>
        <time>2020-07-26T15:22:57Z</time>
      </trkpt>
      <trkpt lat="42.83929" lon="2.15161">
        <ele>988</ele>
        <time>2020-07-26T15:23:01Z</time>
      </trkpt>
      <trkpt lat="42.8393" lon="2.15155">
        <ele>988</ele>
        <time>2020-07-26T15:23:03Z</time>
      </trkpt>
      <trkpt lat="42.83934" lon="2.15135">
        <ele>990</ele>
        <time>2020-07-26T15:23:08Z</time>
      </trkpt>
      <trkpt lat="42.83936" lon="2.15124">
        <ele>990</ele>
        <time>2020-07-26T15:23:11Z</time>
      </trkpt>
      <trkpt lat="42.83939" lon="2.15117">
        <ele>991</ele>
        <time>2020-07-26T15:23:13Z</time>
      </trkpt>
      <trkpt lat="42.83944" lon="2.15109">
        <ele>992</ele>
        <time>2020-07-26T15:23:16Z</time>
      </trkpt>
      <trkpt lat="42.83948" lon="2.15102">
        <ele>992</ele>
        <time>2020-07-26T15:23:18Z</time>
      </trkpt>
      <trkpt lat="42.83948" lon="2.15096">
        <ele>993</ele>
        <time>2020-07-26T15:23:20Z</time>
      </trkpt>
      <trkpt lat="42.83946" lon="2.15084">
        <ele>993</ele>
        <time>2020-07-26T15:23:24Z</time>
      </trkpt>
      <trkpt lat="42.83945" lon="2.15079">
        <ele>993</ele>
        <time>2020-07-26T15:23:26Z</time>
      </trkpt>
      <trkpt lat="42.83945" lon="2.15074">
        <ele>994</ele>
        <time>2020-07-26T15:23:28Z</time>
      </trkpt>
      <trkpt lat="42.83945" lon="2.15068">
        <ele>995</ele>
        <time>2020-07-26T15:23:30Z</time>
      </trkpt>
      <trkpt lat="42.83944" lon="2.15062">
        <ele>996</ele>
        <time>2020-07-26T15:23:32Z</time>
      </trkpt>
      <trkpt lat="42.83943" lon="2.15048">
        <ele>997</ele>
        <time>2020-07-26T15:23:36Z</time>
      </trkpt>
      <trkpt lat="42.83941" lon="2.15038">
        <ele>997</ele>
        <time>2020-07-26T15:23:38Z</time>
      </trkpt>
      <trkpt lat="42.83939" lon="2.1503">
        <ele>998</ele>
        <time>2020-07-26T15:23:40Z</time>
      </trkpt>
      <trkpt lat="42.83935" lon="2.15013">
        <ele>998</ele>
        <time>2020-07-26T15:23:44Z</time>
      </trkpt>
      <trkpt lat="42.83934" lon="2.15007">
        <ele>999</ele>
        <time>2020-07-26T15:23:46Z</time>
      </trkpt>
      <trkpt lat="42.83934" lon="2.15">
        <ele>998</ele>
        <time>2020-07-26T15:23:48Z</time>
      </trkpt>
      <trkpt lat="42.83933" lon="2.14988">
        <ele>999</ele>
        <time>2020-07-26T15:23:51Z</time>
      </trkpt>
      <trkpt lat="42.83934" lon="2.1498">
        <ele>999</ele>
        <time>2020-07-26T15:23:53Z</time>
      </trkpt>
      <trkpt lat="42.83933" lon="2.1496">
        <ele>999</ele>
        <time>2020-07-26T15:23:58Z</time>
      </trkpt>
      <trkpt lat="42.83933" lon="2.14952">
        <ele>999</ele>
        <time>2020-07-26T15:24:00Z</time>
      </trkpt>
      <trkpt lat="42.8393" lon="2.14935">
        <ele>1000</ele>
        <time>2020-07-26T15:24:05Z</time>
      </trkpt>
      <trkpt lat="42.83929" lon="2.14919">
        <ele>1001</ele>
        <time>2020-07-26T15:24:09Z</time>
      </trkpt>
      <trkpt lat="42.83927" lon="2.14906">
        <ele>1002</ele>
        <time>2020-07-26T15:24:13Z</time>
      </trkpt>
      <trkpt lat="42.83926" lon="2.14896">
        <ele>1002</ele>
        <time>2020-07-26T15:24:16Z</time>
      </trkpt>
      <trkpt lat="42.83921" lon="2.14884">
        <ele>1003</ele>
        <time>2020-07-26T15:24:20Z</time>
      </trkpt>
      <trkpt lat="42.83918" lon="2.14869">
        <ele>1005</ele>
        <time>2020-07-26T15:24:24Z</time>
      </trkpt>
      <trkpt lat="42.8392" lon="2.14852">
        <ele>1004</ele>
        <time>2020-07-26T15:24:28Z</time>
      </trkpt>
      <trkpt lat="42.83922" lon="2.14838">
        <ele>1004</ele>
        <time>2020-07-26T15:24:32Z</time>
      </trkpt>
      <trkpt lat="42.83927" lon="2.14825">
        <ele>1005</ele>
        <time>2020-07-26T15:24:36Z</time>
      </trkpt>
      <trkpt lat="42.83929" lon="2.14818">
        <ele>1005</ele>
        <time>2020-07-26T15:24:38Z</time>
      </trkpt>
      <trkpt lat="42.83935" lon="2.14805">
        <ele>1007</ele>
        <time>2020-07-26T15:24:42Z</time>
      </trkpt>
      <trkpt lat="42.83938" lon="2.14793">
        <ele>1007</ele>
        <time>2020-07-26T15:24:45Z</time>
      </trkpt>
      <trkpt lat="42.83939" lon="2.14779">
        <ele>1008</ele>
        <time>2020-07-26T15:24:48Z</time>
      </trkpt>
      <trkpt lat="42.83939" lon="2.14773">
        <ele>1009</ele>
        <time>2020-07-26T15:24:50Z</time>
      </trkpt>
      <trkpt lat="42.83933" lon="2.14762">
        <ele>1010</ele>
        <time>2020-07-26T15:24:54Z</time>
      </trkpt>
      <trkpt lat="42.83929" lon="2.14759">
        <ele>1011</ele>
        <time>2020-07-26T15:24:56Z</time>
      </trkpt>
      <trkpt lat="42.83925" lon="2.14754">
        <ele>1011</ele>
        <time>2020-07-26T15:24:58Z</time>
      </trkpt>
      <trkpt lat="42.83922" lon="2.1475">
        <ele>1012</ele>
        <time>2020-07-26T15:25:00Z</time>
      </trkpt>
      <trkpt lat="42.83914" lon="2.1474">
        <ele>1012</ele>
        <time>2020-07-26T15:25:04Z</time>
      </trkpt>
      <trkpt lat="42.83908" lon="2.14731">
        <ele>1012</ele>
        <time>2020-07-26T15:25:07Z</time>
      </trkpt>
      <trkpt lat="42.83904" lon="2.14726">
        <ele>1013</ele>
        <time>2020-07-26T15:25:09Z</time>
      </trkpt>
      <trkpt lat="42.83899" lon="2.14718">
        <ele>1013</ele>
        <time>2020-07-26T15:25:12Z</time>
      </trkpt>
      <trkpt lat="42.83894" lon="2.14711">
        <ele>1015</ele>
        <time>2020-07-26T15:25:15Z</time>
      </trkpt>
      <trkpt lat="42.8389" lon="2.14703">
        <ele>1015</ele>
        <time>2020-07-26T15:25:19Z</time>
      </trkpt>
      <trkpt lat="42.83887" lon="2.14697">
        <ele>1016</ele>
        <time>2020-07-26T15:25:21Z</time>
      </trkpt>
      <trkpt lat="42.83884" lon="2.14691">
        <ele>1016</ele>
        <time>2020-07-26T15:25:23Z</time>
      </trkpt>
      <trkpt lat="42.83879" lon="2.14685">
        <ele>1016</ele>
        <time>2020-07-26T15:25:26Z</time>
      </trkpt>
      <trkpt lat="42.83874" lon="2.1468">
        <ele>1016</ele>
        <time>2020-07-26T15:25:28Z</time>
      </trkpt>
      <trkpt lat="42.8387" lon="2.14677">
        <ele>1016</ele>
        <time>2020-07-26T15:25:30Z</time>
      </trkpt>
      <trkpt lat="42.83862" lon="2.14667">
        <ele>1018</ele>
        <time>2020-07-26T15:25:34Z</time>
      </trkpt>
      <trkpt lat="42.83856" lon="2.14655">
        <ele>1020</ele>
        <time>2020-07-26T15:25:38Z</time>
      </trkpt>
      <trkpt lat="42.83853" lon="2.14649">
        <ele>1019</ele>
        <time>2020-07-26T15:25:40Z</time>
      </trkpt>
      <trkpt lat="42.8385" lon="2.14642">
        <ele>1020</ele>
        <time>2020-07-26T15:25:42Z</time>
      </trkpt>
      <trkpt lat="42.83842" lon="2.14632">
        <ele>1020</ele>
        <time>2020-07-26T15:25:46Z</time>
      </trkpt>
      <trkpt lat="42.83838" lon="2.14626">
        <ele>1020</ele>
        <time>2020-07-26T15:25:48Z</time>
      </trkpt>
      <trkpt lat="42.83835" lon="2.14617">
        <ele>1021</ele>
        <time>2020-07-26T15:25:51Z</time>
      </trkpt>
      <trkpt lat="42.83832" lon="2.14611">
        <ele>1021</ele>
        <time>2020-07-26T15:25:53Z</time>
      </trkpt>
      <trkpt lat="42.83828" lon="2.14596">
        <ele>1022</ele>
        <time>2020-07-26T15:25:57Z</time>
      </trkpt>
      <trkpt lat="42.83825" lon="2.14578">
        <ele>1022</ele>
        <time>2020-07-26T15:26:01Z</time>
      </trkpt>
      <trkpt lat="42.83824" lon="2.14565">
        <ele>1022</ele>
        <time>2020-07-26T15:26:04Z</time>
      </trkpt>
      <trkpt lat="42.8382" lon="2.1455">
        <ele>1023</ele>
        <time>2020-07-26T15:26:08Z</time>
      </trkpt>
      <trkpt lat="42.83818" lon="2.14541">
        <ele>1024</ele>
        <time>2020-07-26T15:26:10Z</time>
      </trkpt>
      <trkpt lat="42.83815" lon="2.1453">
        <ele>1022</ele>
        <time>2020-07-26T15:26:12Z</time>
      </trkpt>
      <trkpt lat="42.83815" lon="2.14518">
        <ele>1022</ele>
        <time>2020-07-26T15:26:14Z</time>
      </trkpt>
      <trkpt lat="42.83815" lon="2.14501">
        <ele>1022</ele>
        <time>2020-07-26T15:26:17Z</time>
      </trkpt>
      <trkpt lat="42.83815" lon="2.14492">
        <ele>1022</ele>
        <time>2020-07-26T15:26:19Z</time>
      </trkpt>
      <trkpt lat="42.83813" lon="2.14483">
        <ele>1022</ele>
        <time>2020-07-26T15:26:21Z</time>
      </trkpt>
      <trkpt lat="42.83807" lon="2.14465">
        <ele>1024</ele>
        <time>2020-07-26T15:26:25Z</time>
      </trkpt>
      <trkpt lat="42.83799" lon="2.14451">
        <ele>1024</ele>
        <time>2020-07-26T15:26:29Z</time>
      </trkpt>
      <trkpt lat="42.83787" lon="2.14439">
        <ele>1024</ele>
        <time>2020-07-26T15:26:33Z</time>
      </trkpt>
      <trkpt lat="42.83776" lon="2.1443">
        <ele>1025</ele>
        <time>2020-07-26T15:26:36Z</time>
      </trkpt>
      <trkpt lat="42.83761" lon="2.1442">
        <ele>1025</ele>
        <time>2020-07-26T15:26:40Z</time>
      </trkpt>
      <trkpt lat="42.83754" lon="2.14405">
        <ele>1026</ele>
        <time>2020-07-26T15:26:44Z</time>
      </trkpt>
      <trkpt lat="42.83754" lon="2.14389">
        <ele>1024</ele>
        <time>2020-07-26T15:26:46Z</time>
      </trkpt>
      <trkpt lat="42.83756" lon="2.14373">
        <ele>1024</ele>
        <time>2020-07-26T15:26:49Z</time>
      </trkpt>
      <trkpt lat="42.83757" lon="2.14362">
        <ele>1024</ele>
        <time>2020-07-26T15:26:52Z</time>
      </trkpt>
      <trkpt lat="42.83757" lon="2.14354">
        <ele>1024</ele>
        <time>2020-07-26T15:26:54Z</time>
      </trkpt>
      <trkpt lat="42.83756" lon="2.14345">
        <ele>1024</ele>
        <time>2020-07-26T15:26:56Z</time>
      </trkpt>
      <trkpt lat="42.83757" lon="2.14333">
        <ele>1024</ele>
        <time>2020-07-26T15:26:58Z</time>
      </trkpt>
      <trkpt lat="42.83758" lon="2.14319">
        <ele>1024</ele>
        <time>2020-07-26T15:27:01Z</time>
      </trkpt>
      <trkpt lat="42.83761" lon="2.14298">
        <ele>1024</ele>
        <time>2020-07-26T15:27:05Z</time>
      </trkpt>
      <trkpt lat="42.83765" lon="2.14275">
        <ele>1023</ele>
        <time>2020-07-26T15:27:09Z</time>
      </trkpt>
      <trkpt lat="42.8377" lon="2.14255">
        <ele>1024</ele>
        <time>2020-07-26T15:27:13Z</time>
      </trkpt>
      <trkpt lat="42.83771" lon="2.14243">
        <ele>1024</ele>
        <time>2020-07-26T15:27:15Z</time>
      </trkpt>
      <trkpt lat="42.83773" lon="2.14221">
        <ele>1024</ele>
        <time>2020-07-26T15:27:19Z</time>
      </trkpt>
      <trkpt lat="42.83773" lon="2.14208">
        <ele>1024</ele>
        <time>2020-07-26T15:27:21Z</time>
      </trkpt>
      <trkpt lat="42.83775" lon="2.14194">
        <ele>1024</ele>
        <time>2020-07-26T15:27:24Z</time>
      </trkpt>
      <trkpt lat="42.83776" lon="2.14175">
        <ele>1025</ele>
        <time>2020-07-26T15:27:28Z</time>
      </trkpt>
      <trkpt lat="42.83781" lon="2.14146">
        <ele>1024</ele>
        <time>2020-07-26T15:27:33Z</time>
      </trkpt>
      <trkpt lat="42.83782" lon="2.14136">
        <ele>1024</ele>
        <time>2020-07-26T15:27:35Z</time>
      </trkpt>
      <trkpt lat="42.83784" lon="2.14127">
        <ele>1024</ele>
        <time>2020-07-26T15:27:37Z</time>
      </trkpt>
      <trkpt lat="42.83782" lon="2.14112">
        <ele>1025</ele>
        <time>2020-07-26T15:27:40Z</time>
      </trkpt>
      <trkpt lat="42.83776" lon="2.1409">
        <ele>1026</ele>
        <time>2020-07-26T15:27:44Z</time>
      </trkpt>
      <trkpt lat="42.83774" lon="2.14074">
        <ele>1026</ele>
        <time>2020-07-26T15:27:47Z</time>
      </trkpt>
      <trkpt lat="42.83771" lon="2.14062">
        <ele>1026</ele>
        <time>2020-07-26T15:27:49Z</time>
      </trkpt>
      <trkpt lat="42.83764" lon="2.14041">
        <ele>1025</ele>
        <time>2020-07-26T15:27:54Z</time>
      </trkpt>
      <trkpt lat="42.83748" lon="2.14026">
        <ele>1024</ele>
        <time>2020-07-26T15:27:59Z</time>
      </trkpt>
      <trkpt lat="42.83742" lon="2.14024">
        <ele>1024</ele>
        <time>2020-07-26T15:28:01Z</time>
      </trkpt>
      <trkpt lat="42.83734" lon="2.14021">
        <ele>1024</ele>
        <time>2020-07-26T15:28:03Z</time>
      </trkpt>
      <trkpt lat="42.83727" lon="2.14019">
        <ele>1023</ele>
        <time>2020-07-26T15:28:05Z</time>
      </trkpt>
      <trkpt lat="42.83712" lon="2.14019">
        <ele>1023</ele>
        <time>2020-07-26T15:28:09Z</time>
      </trkpt>
      <trkpt lat="42.83707" lon="2.14015">
        <ele>1023</ele>
        <time>2020-07-26T15:28:11Z</time>
      </trkpt>
      <trkpt lat="42.83696" lon="2.14003">
        <ele>1022</ele>
        <time>2020-07-26T15:28:15Z</time>
      </trkpt>
      <trkpt lat="42.83688" lon="2.13988">
        <ele>1023</ele>
        <time>2020-07-26T15:28:19Z</time>
      </trkpt>
      <trkpt lat="42.83684" lon="2.1397">
        <ele>1023</ele>
        <time>2020-07-26T15:28:23Z</time>
      </trkpt>
      <trkpt lat="42.83683" lon="2.1396">
        <ele>1022</ele>
        <time>2020-07-26T15:28:25Z</time>
      </trkpt>
      <trkpt lat="42.83684" lon="2.13944">
        <ele>1021</ele>
        <time>2020-07-26T15:28:28Z</time>
      </trkpt>
      <trkpt lat="42.83688" lon="2.13923">
        <ele>1020</ele>
        <time>2020-07-26T15:28:32Z</time>
      </trkpt>
      <trkpt lat="42.8369" lon="2.13914">
        <ele>1019</ele>
        <time>2020-07-26T15:28:34Z</time>
      </trkpt>
      <trkpt lat="42.83695" lon="2.13897">
        <ele>1019</ele>
        <time>2020-07-26T15:28:38Z</time>
      </trkpt>
      <trkpt lat="42.83696" lon="2.13879">
        <ele>1020</ele>
        <time>2020-07-26T15:28:42Z</time>
      </trkpt>
      <trkpt lat="42.837" lon="2.13861">
        <ele>1020</ele>
        <time>2020-07-26T15:28:46Z</time>
      </trkpt>
      <trkpt lat="42.83702" lon="2.13849">
        <ele>1021</ele>
        <time>2020-07-26T15:28:49Z</time>
      </trkpt>
      <trkpt lat="42.83703" lon="2.13836">
        <ele>1021</ele>
        <time>2020-07-26T15:28:52Z</time>
      </trkpt>
      <trkpt lat="42.83704" lon="2.13826">
        <ele>1021</ele>
        <time>2020-07-26T15:28:54Z</time>
      </trkpt>
      <trkpt lat="42.8371" lon="2.13815">
        <ele>1021</ele>
        <time>2020-07-26T15:28:57Z</time>
      </trkpt>
      <trkpt lat="42.83713" lon="2.13804">
        <ele>1022</ele>
        <time>2020-07-26T15:29:00Z</time>
      </trkpt>
      <trkpt lat="42.83714" lon="2.13794">
        <ele>1022</ele>
        <time>2020-07-26T15:29:02Z</time>
      </trkpt>
      <trkpt lat="42.83716" lon="2.13782">
        <ele>1023</ele>
        <time>2020-07-26T15:29:05Z</time>
      </trkpt>
      <trkpt lat="42.83719" lon="2.13775">
        <ele>1023</ele>
        <time>2020-07-26T15:29:07Z</time>
      </trkpt>
      <trkpt lat="42.83721" lon="2.13762">
        <ele>1023</ele>
        <time>2020-07-26T15:29:10Z</time>
      </trkpt>
      <trkpt lat="42.83722" lon="2.1375">
        <ele>1022</ele>
        <time>2020-07-26T15:29:12Z</time>
      </trkpt>
      <trkpt lat="42.83724" lon="2.13741">
        <ele>1022</ele>
        <time>2020-07-26T15:29:14Z</time>
      </trkpt>
      <trkpt lat="42.83729" lon="2.13724">
        <ele>1022</ele>
        <time>2020-07-26T15:29:18Z</time>
      </trkpt>
      <trkpt lat="42.83734" lon="2.13712">
        <ele>1023</ele>
        <time>2020-07-26T15:29:21Z</time>
      </trkpt>
      <trkpt lat="42.83738" lon="2.13694">
        <ele>1022</ele>
        <time>2020-07-26T15:29:25Z</time>
      </trkpt>
      <trkpt lat="42.83749" lon="2.13683">
        <ele>1022</ele>
        <time>2020-07-26T15:29:29Z</time>
      </trkpt>
      <trkpt lat="42.83758" lon="2.13681">
        <ele>1023</ele>
        <time>2020-07-26T15:29:33Z</time>
      </trkpt>
      <trkpt lat="42.83768" lon="2.13676">
        <ele>1024</ele>
        <time>2020-07-26T15:29:37Z</time>
      </trkpt>
      <trkpt lat="42.83777" lon="2.13672">
        <ele>1024</ele>
        <time>2020-07-26T15:29:40Z</time>
      </trkpt>
      <trkpt lat="42.83783" lon="2.1367">
        <ele>1024</ele>
        <time>2020-07-26T15:29:42Z</time>
      </trkpt>
      <trkpt lat="42.83795" lon="2.13663">
        <ele>1024</ele>
        <time>2020-07-26T15:29:46Z</time>
      </trkpt>
      <trkpt lat="42.83801" lon="2.13656">
        <ele>1024</ele>
        <time>2020-07-26T15:29:48Z</time>
      </trkpt>
      <trkpt lat="42.83809" lon="2.13642">
        <ele>1025</ele>
        <time>2020-07-26T15:29:52Z</time>
      </trkpt>
      <trkpt lat="42.83814" lon="2.13626">
        <ele>1025</ele>
        <time>2020-07-26T15:29:56Z</time>
      </trkpt>
      <trkpt lat="42.83816" lon="2.13617">
        <ele>1025</ele>
        <time>2020-07-26T15:29:58Z</time>
      </trkpt>
      <trkpt lat="42.83816" lon="2.13598">
        <ele>1025</ele>
        <time>2020-07-26T15:30:02Z</time>
      </trkpt>
      <trkpt lat="42.83816" lon="2.13578">
        <ele>1025</ele>
        <time>2020-07-26T15:30:06Z</time>
      </trkpt>
      <trkpt lat="42.83818" lon="2.1357">
        <ele>1026</ele>
        <time>2020-07-26T15:30:08Z</time>
      </trkpt>
      <trkpt lat="42.83821" lon="2.13557">
        <ele>1025</ele>
        <time>2020-07-26T15:30:11Z</time>
      </trkpt>
      <trkpt lat="42.83825" lon="2.13548">
        <ele>1025</ele>
        <time>2020-07-26T15:30:13Z</time>
      </trkpt>
      <trkpt lat="42.83834" lon="2.13535">
        <ele>1025</ele>
        <time>2020-07-26T15:30:17Z</time>
      </trkpt>
      <trkpt lat="42.83844" lon="2.13523">
        <ele>1025</ele>
        <time>2020-07-26T15:30:21Z</time>
      </trkpt>
      <trkpt lat="42.83857" lon="2.13516">
        <ele>1025</ele>
        <time>2020-07-26T15:30:25Z</time>
      </trkpt>
      <trkpt lat="42.83865" lon="2.13514">
        <ele>1025</ele>
        <time>2020-07-26T15:30:27Z</time>
      </trkpt>
      <trkpt lat="42.83881" lon="2.13504">
        <ele>1025</ele>
        <time>2020-07-26T15:30:32Z</time>
      </trkpt>
      <trkpt lat="42.83892" lon="2.1349">
        <ele>1024</ele>
        <time>2020-07-26T15:30:35Z</time>
      </trkpt>
      <trkpt lat="42.83904" lon="2.13473">
        <ele>1023</ele>
        <time>2020-07-26T15:30:39Z</time>
      </trkpt>
      <trkpt lat="42.83908" lon="2.13465">
        <ele>1023</ele>
        <time>2020-07-26T15:30:41Z</time>
      </trkpt>
      <trkpt lat="42.83912" lon="2.13454">
        <ele>1024</ele>
        <time>2020-07-26T15:30:43Z</time>
      </trkpt>
      <trkpt lat="42.83916" lon="2.13444">
        <ele>1024</ele>
        <time>2020-07-26T15:30:45Z</time>
      </trkpt>
      <trkpt lat="42.83922" lon="2.13427">
        <ele>1025</ele>
        <time>2020-07-26T15:30:49Z</time>
      </trkpt>
      <trkpt lat="42.83924" lon="2.13417">
        <ele>1025</ele>
        <time>2020-07-26T15:30:51Z</time>
      </trkpt>
      <trkpt lat="42.83928" lon="2.13391">
        <ele>1024</ele>
        <time>2020-07-26T15:30:56Z</time>
      </trkpt>
      <trkpt lat="42.83928" lon="2.1338">
        <ele>1024</ele>
        <time>2020-07-26T15:30:58Z</time>
      </trkpt>
      <trkpt lat="42.83928" lon="2.1337">
        <ele>1024</ele>
        <time>2020-07-26T15:31:00Z</time>
      </trkpt>
      <trkpt lat="42.8393" lon="2.13349">
        <ele>1025</ele>
        <time>2020-07-26T15:31:05Z</time>
      </trkpt>
      <trkpt lat="42.83929" lon="2.13344">
        <ele>1025</ele>
        <time>2020-07-26T15:31:07Z</time>
      </trkpt>
      <trkpt lat="42.83927" lon="2.13337">
        <ele>1025</ele>
        <time>2020-07-26T15:31:09Z</time>
      </trkpt>
      <trkpt lat="42.83926" lon="2.13328">
        <ele>1025</ele>
        <time>2020-07-26T15:31:11Z</time>
      </trkpt>
      <trkpt lat="42.83925" lon="2.13319">
        <ele>1025</ele>
        <time>2020-07-26T15:31:13Z</time>
      </trkpt>
      <trkpt lat="42.8392" lon="2.13304">
        <ele>1025</ele>
        <time>2020-07-26T15:31:17Z</time>
      </trkpt>
      <trkpt lat="42.83917" lon="2.13295">
        <ele>1025</ele>
        <time>2020-07-26T15:31:19Z</time>
      </trkpt>
      <trkpt lat="42.83916" lon="2.13284">
        <ele>1025</ele>
        <time>2020-07-26T15:31:21Z</time>
      </trkpt>
      <trkpt lat="42.83919" lon="2.13262">
        <ele>1024</ele>
        <time>2020-07-26T15:31:26Z</time>
      </trkpt>
      <trkpt lat="42.83923" lon="2.13246">
        <ele>1024</ele>
        <time>2020-07-26T15:31:30Z</time>
      </trkpt>
      <trkpt lat="42.83926" lon="2.13235">
        <ele>1023</ele>
        <time>2020-07-26T15:31:32Z</time>
      </trkpt>
      <trkpt lat="42.83929" lon="2.1322">
        <ele>1023</ele>
        <time>2020-07-26T15:31:35Z</time>
      </trkpt>
      <trkpt lat="42.83931" lon="2.13202">
        <ele>1023</ele>
        <time>2020-07-26T15:31:39Z</time>
      </trkpt>
      <trkpt lat="42.83931" lon="2.13192">
        <ele>1023</ele>
        <time>2020-07-26T15:31:41Z</time>
      </trkpt>
      <trkpt lat="42.8393" lon="2.13175">
        <ele>1024</ele>
        <time>2020-07-26T15:31:45Z</time>
      </trkpt>
      <trkpt lat="42.83928" lon="2.13154">
        <ele>1023</ele>
        <time>2020-07-26T15:31:49Z</time>
      </trkpt>
      <trkpt lat="42.83931" lon="2.13133">
        <ele>1023</ele>
        <time>2020-07-26T15:31:53Z</time>
      </trkpt>
      <trkpt lat="42.83933" lon="2.13124">
        <ele>1023</ele>
        <time>2020-07-26T15:31:55Z</time>
      </trkpt>
      <trkpt lat="42.83934" lon="2.13116">
        <ele>1023</ele>
        <time>2020-07-26T15:31:57Z</time>
      </trkpt>
      <trkpt lat="42.83936" lon="2.13107">
        <ele>1023</ele>
        <time>2020-07-26T15:31:59Z</time>
      </trkpt>
      <trkpt lat="42.83937" lon="2.13098">
        <ele>1023</ele>
        <time>2020-07-26T15:32:01Z</time>
      </trkpt>
      <trkpt lat="42.83939" lon="2.13089">
        <ele>1023</ele>
        <time>2020-07-26T15:32:03Z</time>
      </trkpt>
      <trkpt lat="42.8394" lon="2.13081">
        <ele>1023</ele>
        <time>2020-07-26T15:32:05Z</time>
      </trkpt>
      <trkpt lat="42.83942" lon="2.13066">
        <ele>1024</ele>
        <time>2020-07-26T15:32:09Z</time>
      </trkpt>
      <trkpt lat="42.8394" lon="2.13052">
        <ele>1024</ele>
        <time>2020-07-26T15:32:13Z</time>
      </trkpt>
      <trkpt lat="42.83942" lon="2.13034">
        <ele>1024</ele>
        <time>2020-07-26T15:32:17Z</time>
      </trkpt>
      <trkpt lat="42.83943" lon="2.13024">
        <ele>1024</ele>
        <time>2020-07-26T15:32:19Z</time>
      </trkpt>
      <trkpt lat="42.83946" lon="2.13006">
        <ele>1023</ele>
        <time>2020-07-26T15:32:23Z</time>
      </trkpt>
      <trkpt lat="42.83947" lon="2.12997">
        <ele>1024</ele>
        <time>2020-07-26T15:32:25Z</time>
      </trkpt>
      <trkpt lat="42.83949" lon="2.12988">
        <ele>1024</ele>
        <time>2020-07-26T15:32:27Z</time>
      </trkpt>
      <trkpt lat="42.83956" lon="2.12974">
        <ele>1024</ele>
        <time>2020-07-26T15:32:31Z</time>
      </trkpt>
      <trkpt lat="42.8396" lon="2.12967">
        <ele>1024</ele>
        <time>2020-07-26T15:32:33Z</time>
      </trkpt>
      <trkpt lat="42.83967" lon="2.12951">
        <ele>1025</ele>
        <time>2020-07-26T15:32:37Z</time>
      </trkpt>
      <trkpt lat="42.83975" lon="2.12939">
        <ele>1025</ele>
        <time>2020-07-26T15:32:41Z</time>
      </trkpt>
      <trkpt lat="42.83981" lon="2.12929">
        <ele>1025</ele>
        <time>2020-07-26T15:32:44Z</time>
      </trkpt>
      <trkpt lat="42.83988" lon="2.12913">
        <ele>1024</ele>
        <time>2020-07-26T15:32:48Z</time>
      </trkpt>
      <trkpt lat="42.83994" lon="2.12899">
        <ele>1024</ele>
        <time>2020-07-26T15:32:52Z</time>
      </trkpt>
      <trkpt lat="42.83999" lon="2.12893">
        <ele>1024</ele>
        <time>2020-07-26T15:32:54Z</time>
      </trkpt>
      <trkpt lat="42.84003" lon="2.12886">
        <ele>1025</ele>
        <time>2020-07-26T15:32:56Z</time>
      </trkpt>
      <trkpt lat="42.84006" lon="2.1288">
        <ele>1025</ele>
        <time>2020-07-26T15:32:58Z</time>
      </trkpt>
      <trkpt lat="42.84012" lon="2.12871">
        <ele>1025</ele>
        <time>2020-07-26T15:33:01Z</time>
      </trkpt>
      <trkpt lat="42.84019" lon="2.12858">
        <ele>1026</ele>
        <time>2020-07-26T15:33:05Z</time>
      </trkpt>
      <trkpt lat="42.84027" lon="2.12845">
        <ele>1027</ele>
        <time>2020-07-26T15:33:09Z</time>
      </trkpt>
      <trkpt lat="42.8403" lon="2.1284">
        <ele>1026</ele>
        <time>2020-07-26T15:33:11Z</time>
      </trkpt>
      <trkpt lat="42.84033" lon="2.12834">
        <ele>1027</ele>
        <time>2020-07-26T15:33:13Z</time>
      </trkpt>
      <trkpt lat="42.84037" lon="2.12828">
        <ele>1028</ele>
        <time>2020-07-26T15:33:15Z</time>
      </trkpt>
      <trkpt lat="42.84044" lon="2.12812">
        <ele>1029</ele>
        <time>2020-07-26T15:33:19Z</time>
      </trkpt>
      <trkpt lat="42.84048" lon="2.12805">
        <ele>1030</ele>
        <time>2020-07-26T15:33:21Z</time>
      </trkpt>
      <trkpt lat="42.84051" lon="2.12799">
        <ele>1030</ele>
        <time>2020-07-26T15:33:23Z</time>
      </trkpt>
      <trkpt lat="42.84055" lon="2.12791">
        <ele>1030</ele>
        <time>2020-07-26T15:33:25Z</time>
      </trkpt>
      <trkpt lat="42.84061" lon="2.12776">
        <ele>1031</ele>
        <time>2020-07-26T15:33:29Z</time>
      </trkpt>
      <trkpt lat="42.84064" lon="2.1277">
        <ele>1031</ele>
        <time>2020-07-26T15:33:31Z</time>
      </trkpt>
      <trkpt lat="42.84067" lon="2.12764">
        <ele>1032</ele>
        <time>2020-07-26T15:33:33Z</time>
      </trkpt>
      <trkpt lat="42.8407" lon="2.12758">
        <ele>1031</ele>
        <time>2020-07-26T15:33:35Z</time>
      </trkpt>
      <trkpt lat="42.84076" lon="2.12744">
        <ele>1033</ele>
        <time>2020-07-26T15:33:39Z</time>
      </trkpt>
      <trkpt lat="42.84082" lon="2.12729">
        <ele>1032</ele>
        <time>2020-07-26T15:33:43Z</time>
      </trkpt>
      <trkpt lat="42.84088" lon="2.1271">
        <ele>1033</ele>
        <time>2020-07-26T15:33:47Z</time>
      </trkpt>
      <trkpt lat="42.84091" lon="2.12701">
        <ele>1033</ele>
        <time>2020-07-26T15:33:49Z</time>
      </trkpt>
      <trkpt lat="42.84094" lon="2.12693">
        <ele>1033</ele>
        <time>2020-07-26T15:33:51Z</time>
      </trkpt>
      <trkpt lat="42.84099" lon="2.12679">
        <ele>1034</ele>
        <time>2020-07-26T15:33:55Z</time>
      </trkpt>
      <trkpt lat="42.84101" lon="2.12672">
        <ele>1034</ele>
        <time>2020-07-26T15:33:57Z</time>
      </trkpt>
      <trkpt lat="42.84107" lon="2.12648">
        <ele>1035</ele>
        <time>2020-07-26T15:34:02Z</time>
      </trkpt>
      <trkpt lat="42.84109" lon="2.1264">
        <ele>1035</ele>
        <time>2020-07-26T15:34:04Z</time>
      </trkpt>
      <trkpt lat="42.84114" lon="2.12622">
        <ele>1036</ele>
        <time>2020-07-26T15:34:08Z</time>
      </trkpt>
      <trkpt lat="42.84117" lon="2.1261">
        <ele>1036</ele>
        <time>2020-07-26T15:34:10Z</time>
      </trkpt>
      <trkpt lat="42.84122" lon="2.126">
        <ele>1036</ele>
        <time>2020-07-26T15:34:12Z</time>
      </trkpt>
      <trkpt lat="42.84127" lon="2.12592">
        <ele>1035</ele>
        <time>2020-07-26T15:34:14Z</time>
      </trkpt>
      <trkpt lat="42.84134" lon="2.12575">
        <ele>1035</ele>
        <time>2020-07-26T15:34:18Z</time>
      </trkpt>
      <trkpt lat="42.8414" lon="2.12565">
        <ele>1035</ele>
        <time>2020-07-26T15:34:21Z</time>
      </trkpt>
      <trkpt lat="42.84147" lon="2.1255">
        <ele>1035</ele>
        <time>2020-07-26T15:34:25Z</time>
      </trkpt>
      <trkpt lat="42.8415" lon="2.1253">
        <ele>1036</ele>
        <time>2020-07-26T15:34:29Z</time>
      </trkpt>
      <trkpt lat="42.84153" lon="2.12524">
        <ele>1036</ele>
        <time>2020-07-26T15:34:31Z</time>
      </trkpt>
      <trkpt lat="42.84156" lon="2.12517">
        <ele>1036</ele>
        <time>2020-07-26T15:34:33Z</time>
      </trkpt>
      <trkpt lat="42.84162" lon="2.12507">
        <ele>1036</ele>
        <time>2020-07-26T15:34:36Z</time>
      </trkpt>
      <trkpt lat="42.84163" lon="2.12499">
        <ele>1036</ele>
        <time>2020-07-26T15:34:38Z</time>
      </trkpt>
      <trkpt lat="42.84167" lon="2.12483">
        <ele>1036</ele>
        <time>2020-07-26T15:34:42Z</time>
      </trkpt>
      <trkpt lat="42.84172" lon="2.1247">
        <ele>1036</ele>
        <time>2020-07-26T15:34:46Z</time>
      </trkpt>
      <trkpt lat="42.84172" lon="2.12468">
        <ele>1036</ele>
        <time>2020-07-26T15:34:50Z</time>
      </trkpt>
      <trkpt lat="42.84171" lon="2.12468">
        <ele>1036</ele>
        <time>2020-07-26T15:35:03Z</time>
      </trkpt>
      <trkpt lat="42.84171" lon="2.12466">
        <ele>1036</ele>
        <time>2020-07-26T15:35:05Z</time>
      </trkpt>
      <trkpt lat="42.84171" lon="2.12465">
        <ele>1035</ele>
        <time>2020-07-26T15:35:07Z</time>
      </trkpt>
      <trkpt lat="42.84173" lon="2.12465">
        <ele>1034</ele>
        <time>2020-07-26T15:35:17Z</time>
      </trkpt>
      <trkpt lat="42.84174" lon="2.12467">
        <ele>1038</ele>
        <time>2020-07-26T15:35:26Z</time>
      </trkpt>
      <trkpt lat="42.84172" lon="2.12467">
        <ele>1040</ele>
        <time>2020-07-26T15:35:35Z</time>
      </trkpt>
      <trkpt lat="42.84173" lon="2.12465">
        <ele>1040</ele>
        <time>2020-07-26T15:35:58Z</time>
      </trkpt>
      <trkpt lat="42.84175" lon="2.1246">
        <ele>1040</ele>
        <time>2020-07-26T15:36:00Z</time>
      </trkpt>
      <trkpt lat="42.8418" lon="2.12449">
        <ele>1041</ele>
        <time>2020-07-26T15:36:04Z</time>
      </trkpt>
      <trkpt lat="42.84184" lon="2.12442">
        <ele>1041</ele>
        <time>2020-07-26T15:36:06Z</time>
      </trkpt>
      <trkpt lat="42.84189" lon="2.12436">
        <ele>1041</ele>
        <time>2020-07-26T15:36:08Z</time>
      </trkpt>
      <trkpt lat="42.84194" lon="2.12421">
        <ele>1042</ele>
        <time>2020-07-26T15:36:12Z</time>
      </trkpt>
      <trkpt lat="42.84197" lon="2.12402">
        <ele>1042</ele>
        <time>2020-07-26T15:36:16Z</time>
      </trkpt>
      <trkpt lat="42.84197" lon="2.12393">
        <ele>1042</ele>
        <time>2020-07-26T15:36:18Z</time>
      </trkpt>
      <trkpt lat="42.84197" lon="2.12381">
        <ele>1042</ele>
        <time>2020-07-26T15:36:20Z</time>
      </trkpt>
      <trkpt lat="42.84193" lon="2.12363">
        <ele>1040</ele>
        <time>2020-07-26T15:36:24Z</time>
      </trkpt>
      <trkpt lat="42.84191" lon="2.12356">
        <ele>1040</ele>
        <time>2020-07-26T15:36:26Z</time>
      </trkpt>
      <trkpt lat="42.84187" lon="2.1235">
        <ele>1041</ele>
        <time>2020-07-26T15:36:28Z</time>
      </trkpt>
      <trkpt lat="42.84176" lon="2.1234">
        <ele>1041</ele>
        <time>2020-07-26T15:36:32Z</time>
      </trkpt>
      <trkpt lat="42.84163" lon="2.12333">
        <ele>1039</ele>
        <time>2020-07-26T15:36:36Z</time>
      </trkpt>
      <trkpt lat="42.84155" lon="2.12331">
        <ele>1039</ele>
        <time>2020-07-26T15:36:38Z</time>
      </trkpt>
      <trkpt lat="42.84141" lon="2.12328">
        <ele>1039</ele>
        <time>2020-07-26T15:36:42Z</time>
      </trkpt>
      <trkpt lat="42.84135" lon="2.12328">
        <ele>1039</ele>
        <time>2020-07-26T15:36:44Z</time>
      </trkpt>
      <trkpt lat="42.84132" lon="2.12328">
        <ele>1039</ele>
        <time>2020-07-26T15:36:48Z</time>
      </trkpt>
      <trkpt lat="42.84131" lon="2.12329">
        <ele>1038</ele>
        <time>2020-07-26T15:36:50Z</time>
      </trkpt>
      <trkpt lat="42.84132" lon="2.12333">
        <ele>1039</ele>
        <time>2020-07-26T15:36:53Z</time>
      </trkpt>
      <trkpt lat="42.84131" lon="2.12334">
        <ele>1039</ele>
        <time>2020-07-26T15:37:11Z</time>
      </trkpt>
      <trkpt lat="42.8413" lon="2.12335">
        <ele>1039</ele>
        <time>2020-07-26T15:37:16Z</time>
      </trkpt>
      <trkpt lat="42.84129" lon="2.12336">
        <ele>1039</ele>
        <time>2020-07-26T15:37:21Z</time>
      </trkpt>
      <trkpt lat="42.84126" lon="2.12337">
        <ele>1039</ele>
        <time>2020-07-26T15:37:23Z</time>
      </trkpt>
      <trkpt lat="42.84117" lon="2.12336">
        <ele>1038</ele>
        <time>2020-07-26T15:37:27Z</time>
      </trkpt>
      <trkpt lat="42.8411" lon="2.12333">
        <ele>1038</ele>
        <time>2020-07-26T15:37:29Z</time>
      </trkpt>
      <trkpt lat="42.84095" lon="2.12318">
        <ele>1037</ele>
        <time>2020-07-26T15:37:33Z</time>
      </trkpt>
      <trkpt lat="42.84076" lon="2.12309">
        <ele>1036</ele>
        <time>2020-07-26T15:37:37Z</time>
      </trkpt>
      <trkpt lat="42.84068" lon="2.12305">
        <ele>1036</ele>
        <time>2020-07-26T15:37:39Z</time>
      </trkpt>
      <trkpt lat="42.84062" lon="2.12291">
        <ele>1036</ele>
        <time>2020-07-26T15:37:43Z</time>
      </trkpt>
      <trkpt lat="42.84061" lon="2.12273">
        <ele>1035</ele>
        <time>2020-07-26T15:37:47Z</time>
      </trkpt>
      <trkpt lat="42.84061" lon="2.12263">
        <ele>1034</ele>
        <time>2020-07-26T15:37:51Z</time>
      </trkpt>
      <trkpt lat="42.84066" lon="2.1225">
        <ele>1034</ele>
        <time>2020-07-26T15:37:55Z</time>
      </trkpt>
      <trkpt lat="42.84068" lon="2.12231">
        <ele>1032</ele>
        <time>2020-07-26T15:37:59Z</time>
      </trkpt>
      <trkpt lat="42.84072" lon="2.122">
        <ele>1031</ele>
        <time>2020-07-26T15:38:03Z</time>
      </trkpt>
      <trkpt lat="42.84077" lon="2.12184">
        <ele>1030</ele>
        <time>2020-07-26T15:38:05Z</time>
      </trkpt>
      <trkpt lat="42.84083" lon="2.12172">
        <ele>1030</ele>
        <time>2020-07-26T15:38:07Z</time>
      </trkpt>
      <trkpt lat="42.84094" lon="2.12148">
        <ele>1029</ele>
        <time>2020-07-26T15:38:11Z</time>
      </trkpt>
      <trkpt lat="42.84102" lon="2.12121">
        <ele>1028</ele>
        <time>2020-07-26T15:38:15Z</time>
      </trkpt>
      <trkpt lat="42.84104" lon="2.12107">
        <ele>1028</ele>
        <time>2020-07-26T15:38:17Z</time>
      </trkpt>
      <trkpt lat="42.84109" lon="2.12081">
        <ele>1027</ele>
        <time>2020-07-26T15:38:21Z</time>
      </trkpt>
      <trkpt lat="42.84108" lon="2.12055">
        <ele>1027</ele>
        <time>2020-07-26T15:38:25Z</time>
      </trkpt>
      <trkpt lat="42.84108" lon="2.12044">
        <ele>1026</ele>
        <time>2020-07-26T15:38:27Z</time>
      </trkpt>
      <trkpt lat="42.84109" lon="2.12032">
        <ele>1027</ele>
        <time>2020-07-26T15:38:29Z</time>
      </trkpt>
      <trkpt lat="42.84111" lon="2.12011">
        <ele>1026</ele>
        <time>2020-07-26T15:38:33Z</time>
      </trkpt>
      <trkpt lat="42.84104" lon="2.11995">
        <ele>1026</ele>
        <time>2020-07-26T15:38:37Z</time>
      </trkpt>
      <trkpt lat="42.84097" lon="2.11994">
        <ele>1026</ele>
        <time>2020-07-26T15:38:39Z</time>
      </trkpt>
      <trkpt lat="42.8409" lon="2.11995">
        <ele>1026</ele>
        <time>2020-07-26T15:38:41Z</time>
      </trkpt>
      <trkpt lat="42.84077" lon="2.11991">
        <ele>1026</ele>
        <time>2020-07-26T15:38:45Z</time>
      </trkpt>
      <trkpt lat="42.84063" lon="2.11983">
        <ele>1025</ele>
        <time>2020-07-26T15:38:49Z</time>
      </trkpt>
      <trkpt lat="42.84054" lon="2.11969">
        <ele>1026</ele>
        <time>2020-07-26T15:38:53Z</time>
      </trkpt>
      <trkpt lat="42.84051" lon="2.11952">
        <ele>1026</ele>
        <time>2020-07-26T15:38:57Z</time>
      </trkpt>
      <trkpt lat="42.84052" lon="2.11947">
        <ele>1027</ele>
        <time>2020-07-26T15:39:28Z</time>
      </trkpt>
      <trkpt lat="42.84052" lon="2.11942">
        <ele>1027</ele>
        <time>2020-07-26T15:39:30Z</time>
      </trkpt>
      <trkpt lat="42.84054" lon="2.11938">
        <ele>1027</ele>
        <time>2020-07-26T15:39:32Z</time>
      </trkpt>
      <trkpt lat="42.84058" lon="2.11927">
        <ele>1027</ele>
        <time>2020-07-26T15:39:36Z</time>
      </trkpt>
      <trkpt lat="42.84064" lon="2.11917">
        <ele>1027</ele>
        <time>2020-07-26T15:39:40Z</time>
      </trkpt>
      <trkpt lat="42.84072" lon="2.11908">
        <ele>1027</ele>
        <time>2020-07-26T15:39:44Z</time>
      </trkpt>
      <trkpt lat="42.84076" lon="2.11902">
        <ele>1027</ele>
        <time>2020-07-26T15:39:46Z</time>
      </trkpt>
      <trkpt lat="42.84085" lon="2.11889">
        <ele>1027</ele>
        <time>2020-07-26T15:39:50Z</time>
      </trkpt>
      <trkpt lat="42.8409" lon="2.11881">
        <ele>1027</ele>
        <time>2020-07-26T15:39:52Z</time>
      </trkpt>
      <trkpt lat="42.84098" lon="2.11864">
        <ele>1028</ele>
        <time>2020-07-26T15:39:56Z</time>
      </trkpt>
      <trkpt lat="42.84104" lon="2.11848">
        <ele>1028</ele>
        <time>2020-07-26T15:40:00Z</time>
      </trkpt>
      <trkpt lat="42.84104" lon="2.1184">
        <ele>1028</ele>
        <time>2020-07-26T15:40:02Z</time>
      </trkpt>
      <trkpt lat="42.84106" lon="2.1182">
        <ele>1028</ele>
        <time>2020-07-26T15:40:06Z</time>
      </trkpt>
      <trkpt lat="42.84103" lon="2.11805">
        <ele>1028</ele>
        <time>2020-07-26T15:40:10Z</time>
      </trkpt>
      <trkpt lat="42.84101" lon="2.11798">
        <ele>1028</ele>
        <time>2020-07-26T15:40:12Z</time>
      </trkpt>
      <trkpt lat="42.84088" lon="2.11777">
        <ele>1029</ele>
        <time>2020-07-26T15:40:16Z</time>
      </trkpt>
      <trkpt lat="42.84081" lon="2.11766">
        <ele>1028</ele>
        <time>2020-07-26T15:40:18Z</time>
      </trkpt>
      <trkpt lat="42.84063" lon="2.11748">
        <ele>1028</ele>
        <time>2020-07-26T15:40:22Z</time>
      </trkpt>
      <trkpt lat="42.84054" lon="2.11745">
        <ele>1027</ele>
        <time>2020-07-26T15:40:24Z</time>
      </trkpt>
      <trkpt lat="42.84045" lon="2.11744">
        <ele>1027</ele>
        <time>2020-07-26T15:40:26Z</time>
      </trkpt>
      <trkpt lat="42.84024" lon="2.11742">
        <ele>1023</ele>
        <time>2020-07-26T15:40:30Z</time>
      </trkpt>
      <trkpt lat="42.84009" lon="2.11735">
        <ele>1020</ele>
        <time>2020-07-26T15:40:34Z</time>
      </trkpt>
      <trkpt lat="42.84003" lon="2.1173">
        <ele>1020</ele>
        <time>2020-07-26T15:40:36Z</time>
      </trkpt>
      <trkpt lat="42.83999" lon="2.11716">
        <ele>1020</ele>
        <time>2020-07-26T15:40:39Z</time>
      </trkpt>
      <trkpt lat="42.83998" lon="2.11683">
        <ele>1017</ele>
        <time>2020-07-26T15:40:43Z</time>
      </trkpt>
      <trkpt lat="42.84004" lon="2.11653">
        <ele>1014</ele>
        <time>2020-07-26T15:40:47Z</time>
      </trkpt>
      <trkpt lat="42.84013" lon="2.1163">
        <ele>1013</ele>
        <time>2020-07-26T15:40:51Z</time>
      </trkpt>
      <trkpt lat="42.84022" lon="2.11606">
        <ele>1012</ele>
        <time>2020-07-26T15:40:55Z</time>
      </trkpt>
      <trkpt lat="42.84032" lon="2.11582">
        <ele>1011</ele>
        <time>2020-07-26T15:40:59Z</time>
      </trkpt>
      <trkpt lat="42.84043" lon="2.11556">
        <ele>1011</ele>
        <time>2020-07-26T15:41:03Z</time>
      </trkpt>
      <trkpt lat="42.84054" lon="2.11532">
        <ele>1011</ele>
        <time>2020-07-26T15:41:07Z</time>
      </trkpt>
      <trkpt lat="42.84063" lon="2.11502">
        <ele>1011</ele>
        <time>2020-07-26T15:41:11Z</time>
      </trkpt>
      <trkpt lat="42.84071" lon="2.11474">
        <ele>1011</ele>
        <time>2020-07-26T15:41:15Z</time>
      </trkpt>
      <trkpt lat="42.84075" lon="2.11458">
        <ele>1010</ele>
        <time>2020-07-26T15:41:17Z</time>
      </trkpt>
      <trkpt lat="42.84076" lon="2.11443">
        <ele>1010</ele>
        <time>2020-07-26T15:41:19Z</time>
      </trkpt>
      <trkpt lat="42.84078" lon="2.11429">
        <ele>1010</ele>
        <time>2020-07-26T15:41:21Z</time>
      </trkpt>
      <trkpt lat="42.8408" lon="2.11396">
        <ele>1010</ele>
        <time>2020-07-26T15:41:25Z</time>
      </trkpt>
      <trkpt lat="42.84082" lon="2.11379">
        <ele>1009</ele>
        <time>2020-07-26T15:41:27Z</time>
      </trkpt>
      <trkpt lat="42.84088" lon="2.11351">
        <ele>1009</ele>
        <time>2020-07-26T15:41:31Z</time>
      </trkpt>
      <trkpt lat="42.84094" lon="2.11325">
        <ele>1007</ele>
        <time>2020-07-26T15:41:35Z</time>
      </trkpt>
      <trkpt lat="42.84096" lon="2.1131">
        <ele>1006</ele>
        <time>2020-07-26T15:41:37Z</time>
      </trkpt>
      <trkpt lat="42.841" lon="2.11282">
        <ele>1005</ele>
        <time>2020-07-26T15:41:41Z</time>
      </trkpt>
      <trkpt lat="42.84104" lon="2.11259">
        <ele>1005</ele>
        <time>2020-07-26T15:41:44Z</time>
      </trkpt>
      <trkpt lat="42.84107" lon="2.11244">
        <ele>1005</ele>
        <time>2020-07-26T15:41:46Z</time>
      </trkpt>
      <trkpt lat="42.84111" lon="2.11213">
        <ele>1004</ele>
        <time>2020-07-26T15:41:50Z</time>
      </trkpt>
      <trkpt lat="42.84115" lon="2.11203">
        <ele>1004</ele>
        <time>2020-07-26T15:41:52Z</time>
      </trkpt>
      <trkpt lat="42.84119" lon="2.11178">
        <ele>1003</ele>
        <time>2020-07-26T15:41:55Z</time>
      </trkpt>
      <trkpt lat="42.84122" lon="2.11161">
        <ele>1003</ele>
        <time>2020-07-26T15:41:57Z</time>
      </trkpt>
      <trkpt lat="42.84124" lon="2.11116">
        <ele>1002</ele>
        <time>2020-07-26T15:42:02Z</time>
      </trkpt>
      <trkpt lat="42.84127" lon="2.11097">
        <ele>1001</ele>
        <time>2020-07-26T15:42:04Z</time>
      </trkpt>
      <trkpt lat="42.84129" lon="2.11079">
        <ele>1001</ele>
        <time>2020-07-26T15:42:06Z</time>
      </trkpt>
      <trkpt lat="42.84131" lon="2.11065">
        <ele>1000</ele>
        <time>2020-07-26T15:42:08Z</time>
      </trkpt>
      <trkpt lat="42.84137" lon="2.11028">
        <ele>1000</ele>
        <time>2020-07-26T15:42:13Z</time>
      </trkpt>
      <trkpt lat="42.84147" lon="2.11003">
        <ele>999</ele>
        <time>2020-07-26T15:42:17Z</time>
      </trkpt>
      <trkpt lat="42.84156" lon="2.1098">
        <ele>998</ele>
        <time>2020-07-26T15:42:21Z</time>
      </trkpt>
      <trkpt lat="42.84156" lon="2.10964">
        <ele>998</ele>
        <time>2020-07-26T15:42:24Z</time>
      </trkpt>
      <trkpt lat="42.84156" lon="2.10958">
        <ele>997</ele>
        <time>2020-07-26T15:42:26Z</time>
      </trkpt>
      <trkpt lat="42.84155" lon="2.10956">
        <ele>997</ele>
        <time>2020-07-26T15:42:29Z</time>
      </trkpt>
      <trkpt lat="42.84154" lon="2.10951">
        <ele>997</ele>
        <time>2020-07-26T15:42:57Z</time>
      </trkpt>
      <trkpt lat="42.84153" lon="2.10944">
        <ele>997</ele>
        <time>2020-07-26T15:42:59Z</time>
      </trkpt>
      <trkpt lat="42.84148" lon="2.10924">
        <ele>996</ele>
        <time>2020-07-26T15:43:03Z</time>
      </trkpt>
      <trkpt lat="42.84147" lon="2.10915">
        <ele>996</ele>
        <time>2020-07-26T15:43:05Z</time>
      </trkpt>
      <trkpt lat="42.84146" lon="2.10896">
        <ele>995</ele>
        <time>2020-07-26T15:43:09Z</time>
      </trkpt>
      <trkpt lat="42.8414" lon="2.10874">
        <ele>995</ele>
        <time>2020-07-26T15:43:13Z</time>
      </trkpt>
      <trkpt lat="42.84136" lon="2.10862">
        <ele>995</ele>
        <time>2020-07-26T15:43:15Z</time>
      </trkpt>
      <trkpt lat="42.84135" lon="2.10836">
        <ele>994</ele>
        <time>2020-07-26T15:43:19Z</time>
      </trkpt>
      <trkpt lat="42.84135" lon="2.10823">
        <ele>994</ele>
        <time>2020-07-26T15:43:21Z</time>
      </trkpt>
      <trkpt lat="42.84137" lon="2.10808">
        <ele>993</ele>
        <time>2020-07-26T15:43:23Z</time>
      </trkpt>
      <trkpt lat="42.84144" lon="2.10781">
        <ele>991</ele>
        <time>2020-07-26T15:43:27Z</time>
      </trkpt>
      <trkpt lat="42.84153" lon="2.1076">
        <ele>991</ele>
        <time>2020-07-26T15:43:30Z</time>
      </trkpt>
      <trkpt lat="42.84157" lon="2.10748">
        <ele>990</ele>
        <time>2020-07-26T15:43:32Z</time>
      </trkpt>
      <trkpt lat="42.84161" lon="2.10715">
        <ele>989</ele>
        <time>2020-07-26T15:43:36Z</time>
      </trkpt>
      <trkpt lat="42.84166" lon="2.10698">
        <ele>988</ele>
        <time>2020-07-26T15:43:38Z</time>
      </trkpt>
      <trkpt lat="42.84176" lon="2.10673">
        <ele>987</ele>
        <time>2020-07-26T15:43:41Z</time>
      </trkpt>
      <trkpt lat="42.84188" lon="2.10645">
        <ele>985</ele>
        <time>2020-07-26T15:43:45Z</time>
      </trkpt>
      <trkpt lat="42.842" lon="2.1062">
        <ele>984</ele>
        <time>2020-07-26T15:43:49Z</time>
      </trkpt>
      <trkpt lat="42.84211" lon="2.10593">
        <ele>983</ele>
        <time>2020-07-26T15:43:53Z</time>
      </trkpt>
      <trkpt lat="42.84216" lon="2.10581">
        <ele>982</ele>
        <time>2020-07-26T15:43:55Z</time>
      </trkpt>
      <trkpt lat="42.84221" lon="2.10568">
        <ele>982</ele>
        <time>2020-07-26T15:43:57Z</time>
      </trkpt>
      <trkpt lat="42.84225" lon="2.10553">
        <ele>982</ele>
        <time>2020-07-26T15:43:59Z</time>
      </trkpt>
      <trkpt lat="42.84229" lon="2.10539">
        <ele>982</ele>
        <time>2020-07-26T15:44:01Z</time>
      </trkpt>
      <trkpt lat="42.84234" lon="2.10505">
        <ele>982</ele>
        <time>2020-07-26T15:44:05Z</time>
      </trkpt>
      <trkpt lat="42.84236" lon="2.10488">
        <ele>982</ele>
        <time>2020-07-26T15:44:07Z</time>
      </trkpt>
      <trkpt lat="42.84232" lon="2.10456">
        <ele>982</ele>
        <time>2020-07-26T15:44:12Z</time>
      </trkpt>
      <trkpt lat="42.84231" lon="2.10447">
        <ele>982</ele>
        <time>2020-07-26T15:44:14Z</time>
      </trkpt>
      <trkpt lat="42.8423" lon="2.10435">
        <ele>982</ele>
        <time>2020-07-26T15:44:16Z</time>
      </trkpt>
      <trkpt lat="42.8423" lon="2.10407">
        <ele>981</ele>
        <time>2020-07-26T15:44:20Z</time>
      </trkpt>
      <trkpt lat="42.84232" lon="2.10391">
        <ele>981</ele>
        <time>2020-07-26T15:44:22Z</time>
      </trkpt>
      <trkpt lat="42.84235" lon="2.10376">
        <ele>981</ele>
        <time>2020-07-26T15:44:24Z</time>
      </trkpt>
      <trkpt lat="42.84239" lon="2.10349">
        <ele>980</ele>
        <time>2020-07-26T15:44:28Z</time>
      </trkpt>
      <trkpt lat="42.84242" lon="2.10337">
        <ele>980</ele>
        <time>2020-07-26T15:44:30Z</time>
      </trkpt>
      <trkpt lat="42.84248" lon="2.10309">
        <ele>979</ele>
        <time>2020-07-26T15:44:34Z</time>
      </trkpt>
      <trkpt lat="42.84251" lon="2.10293">
        <ele>979</ele>
        <time>2020-07-26T15:44:36Z</time>
      </trkpt>
      <trkpt lat="42.84257" lon="2.1027">
        <ele>979</ele>
        <time>2020-07-26T15:44:39Z</time>
      </trkpt>
      <trkpt lat="42.84265" lon="2.10238">
        <ele>979</ele>
        <time>2020-07-26T15:44:43Z</time>
      </trkpt>
      <trkpt lat="42.84276" lon="2.1021">
        <ele>978</ele>
        <time>2020-07-26T15:44:47Z</time>
      </trkpt>
      <trkpt lat="42.8428" lon="2.10194">
        <ele>977</ele>
        <time>2020-07-26T15:44:49Z</time>
      </trkpt>
      <trkpt lat="42.84288" lon="2.10152">
        <ele>975</ele>
        <time>2020-07-26T15:44:53Z</time>
      </trkpt>
      <trkpt lat="42.84289" lon="2.1013">
        <ele>975</ele>
        <time>2020-07-26T15:44:55Z</time>
      </trkpt>
      <trkpt lat="42.84287" lon="2.10108">
        <ele>975</ele>
        <time>2020-07-26T15:44:57Z</time>
      </trkpt>
      <trkpt lat="42.84285" lon="2.1007">
        <ele>975</ele>
        <time>2020-07-26T15:45:01Z</time>
      </trkpt>
      <trkpt lat="42.84285" lon="2.10055">
        <ele>974</ele>
        <time>2020-07-26T15:45:03Z</time>
      </trkpt>
      <trkpt lat="42.84286" lon="2.10025">
        <ele>969</ele>
        <time>2020-07-26T15:45:07Z</time>
      </trkpt>
      <trkpt lat="42.8429" lon="2.10002">
        <ele>964</ele>
        <time>2020-07-26T15:45:11Z</time>
      </trkpt>
      <trkpt lat="42.84293" lon="2.09992">
        <ele>963</ele>
        <time>2020-07-26T15:45:13Z</time>
      </trkpt>
      <trkpt lat="42.84297" lon="2.09979">
        <ele>962</ele>
        <time>2020-07-26T15:45:16Z</time>
      </trkpt>
      <trkpt lat="42.843" lon="2.09971">
        <ele>961</ele>
        <time>2020-07-26T15:45:18Z</time>
      </trkpt>
      <trkpt lat="42.84302" lon="2.09964">
        <ele>961</ele>
        <time>2020-07-26T15:45:20Z</time>
      </trkpt>
      <trkpt lat="42.84304" lon="2.09958">
        <ele>961</ele>
        <time>2020-07-26T15:45:23Z</time>
      </trkpt>
      <trkpt lat="42.84304" lon="2.09957">
        <ele>960</ele>
        <time>2020-07-26T15:45:28Z</time>
      </trkpt>
    </trkseg>
  </trk>
</gpx>